KAR3658 VVCR-UNNT
Flight info
| Callsign | KAR3658 |
|---|---|
| Flight time | 6h 44m |
| Altitude | 33000 |
| Route | KARAN1C KARAN W2 PCA G221 BUNTA/K0941S1005 G221 WL V41 RUNEG W169 WUY R339 BSE V86 QNX A581 BIPIP W179 RIRKI W232 WFX W179 OMBON W195 MORIT Y962 NIGOR/K0906F330 G122 BEGIL BEGIL1P |
| Aircraft | B772/H-SDE2E3FGHIJ5LORVWXY/LB1D1 |
Departure
| Time | 2026-04-22 10:53 |
|---|---|
| Airport | Cam Ranh International Airport / Cam Ranh Air Base (VVCR) |
Arrival
| Time | 2026-04-22 17:37 |
|---|---|
| Airport | Novosibirsk Tolmachevo Airport (UNNT) |
| Time | Latitude | Longitude | Altitude | Speed | Heading |
|---|---|---|---|---|---|
| 2026-04-22 10:53 | 11.96168 | 109.27466 | 3982 ft | 273 kts | 57° |
| 2026-04-22 10:53 | 11.97418 | 109.28895 | 4326 ft | 278 kts | 32° |
| 2026-04-22 10:53 | 11.99268 | 109.29498 | 4838 ft | 282 kts | 0° |
| 2026-04-22 10:54 | 12.01191 | 109.29152 | 5445 ft | 281 kts | 340° |
| 2026-04-22 10:54 | 12.03017 | 109.28419 | 5884 ft | 288 kts | 338° |
| 2026-04-22 10:54 | 12.04877 | 109.27628 | 6442 ft | 290 kts | 337° |
| 2026-04-22 10:54 | 12.06744 | 109.26828 | 7059 ft | 290 kts | 337° |
| 2026-04-22 10:55 | 12.08616 | 109.26027 | 7599 ft | 292 kts | 337° |
| 2026-04-22 10:55 | 12.10492 | 109.25226 | 8123 ft | 295 kts | 337° |
| 2026-04-22 10:55 | 12.12405 | 109.24414 | 8637 ft | 297 kts | 337° |
| 2026-04-22 10:55 | 12.14271 | 109.23627 | 9128 ft | 299 kts | 337° |
| 2026-04-22 10:56 | 12.16211 | 109.22812 | 9651 ft | 300 kts | 338° |
| 2026-04-22 10:56 | 12.18131 | 109.22006 | 10111 ft | 305 kts | 338° |
| 2026-04-22 10:56 | 12.20140 | 109.21161 | 10263 ft | 321 kts | 338° |
| 2026-04-22 10:56 | 12.22280 | 109.20368 | 10398 ft | 338 kts | 345° |
| 2026-04-22 10:57 | 12.24640 | 109.19828 | 10528 ft | 354 kts | 351° |
| 2026-04-22 10:57 | 12.27149 | 109.19502 | 10664 ft | 371 kts | 354° |
| 2026-04-22 10:57 | 12.29752 | 109.19256 | 11011 ft | 382 kts | 355° |
| 2026-04-22 10:57 | 12.32405 | 109.19022 | 11509 ft | 388 kts | 355° |
| 2026-04-22 10:58 | 12.35118 | 109.18774 | 12134 ft | 390 kts | 355° |
| 2026-04-22 10:58 | 12.37805 | 109.18516 | 12812 ft | 392 kts | 354° |
| 2026-04-22 10:58 | 12.40532 | 109.18241 | 13414 ft | 395 kts | 354° |
| 2026-04-22 10:58 | 12.43305 | 109.17956 | 13944 ft | 401 kts | 354° |
| 2026-04-22 10:59 | 12.46068 | 109.17669 | 14490 ft | 405 kts | 354° |
| 2026-04-22 10:59 | 12.48896 | 109.17374 | 15093 ft | 408 kts | 354° |
| 2026-04-22 10:59 | 12.51739 | 109.17078 | 15681 ft | 411 kts | 354° |
| 2026-04-22 10:59 | 12.54569 | 109.16780 | 16215 ft | 415 kts | 354° |
| 2026-04-22 11:00 | 12.57475 | 109.16475 | 16768 ft | 419 kts | 354° |
| 2026-04-22 11:00 | 12.60369 | 109.16173 | 17333 ft | 423 kts | 354° |
| 2026-04-22 11:00 | 12.63317 | 109.15865 | 17893 ft | 426 kts | 354° |
| 2026-04-22 11:00 | 12.66295 | 109.15560 | 18427 ft | 430 kts | 355° |
| 2026-04-22 11:01 | 12.69266 | 109.15288 | 18928 ft | 434 kts | 355° |
| 2026-04-22 11:01 | 12.72293 | 109.15030 | 19439 ft | 438 kts | 355° |
| 2026-04-22 11:01 | 12.75362 | 109.14772 | 19945 ft | 442 kts | 355° |
| 2026-04-22 11:01 | 12.78413 | 109.14513 | 20434 ft | 445 kts | 355° |
| 2026-04-22 11:02 | 12.81536 | 109.14243 | 20942 ft | 449 kts | 355° |
| 2026-04-22 11:02 | 12.84621 | 109.13976 | 21389 ft | 452 kts | 355° |
| 2026-04-22 11:02 | 12.87770 | 109.13701 | 21835 ft | 455 kts | 355° |
| 2026-04-22 11:02 | 12.90950 | 109.13422 | 22265 ft | 458 kts | 355° |
| 2026-04-22 11:03 | 12.94150 | 109.13141 | 22667 ft | 462 kts | 355° |
| 2026-04-22 11:03 | 12.97343 | 109.12862 | 23059 ft | 464 kts | 355° |
| 2026-04-22 11:03 | 13.00575 | 109.12578 | 23445 ft | 467 kts | 355° |
| 2026-04-22 11:03 | 13.03837 | 109.12293 | 23816 ft | 469 kts | 355° |
| 2026-04-22 11:04 | 13.07078 | 109.12009 | 24147 ft | 472 kts | 355° |
| 2026-04-22 11:04 | 13.10360 | 109.11721 | 24470 ft | 474 kts | 355° |
| 2026-04-22 11:04 | 13.13666 | 109.11431 | 24825 ft | 476 kts | 356° |
| 2026-04-22 11:04 | 13.16984 | 109.11139 | 25177 ft | 478 kts | 356° |
| 2026-04-22 11:05 | 13.20264 | 109.10851 | 25520 ft | 479 kts | 356° |
| 2026-04-22 11:05 | 13.23606 | 109.10557 | 25850 ft | 480 kts | 356° |
| 2026-04-22 11:05 | 13.26950 | 109.10263 | 26148 ft | 482 kts | 356° |
| 2026-04-22 11:05 | 13.30279 | 109.09971 | 26415 ft | 484 kts | 355° |
| 2026-04-22 11:06 | 13.33661 | 109.09677 | 26712 ft | 485 kts | 356° |
| 2026-04-22 11:06 | 13.37036 | 109.09386 | 26979 ft | 487 kts | 356° |
| 2026-04-22 11:06 | 13.40416 | 109.09094 | 27230 ft | 488 kts | 356° |
| 2026-04-22 11:06 | 13.43775 | 109.08804 | 27491 ft | 490 kts | 356° |
| 2026-04-22 11:07 | 13.47190 | 109.08509 | 27758 ft | 491 kts | 356° |
| 2026-04-22 11:07 | 13.50576 | 109.08216 | 27995 ft | 492 kts | 356° |
| 2026-04-22 11:07 | 13.53998 | 109.07920 | 28228 ft | 493 kts | 356° |
| 2026-04-22 11:07 | 13.57430 | 109.07622 | 28444 ft | 494 kts | 356° |
| 2026-04-22 11:08 | 13.60825 | 109.07328 | 28632 ft | 495 kts | 356° |
| 2026-04-22 11:08 | 13.64280 | 109.07029 | 28808 ft | 497 kts | 356° |
| 2026-04-22 11:08 | 13.67734 | 109.06730 | 28973 ft | 498 kts | 356° |
| 2026-04-22 11:08 | 13.71196 | 109.06431 | 29137 ft | 499 kts | 356° |
| 2026-04-22 11:09 | 13.74659 | 109.06131 | 29278 ft | 500 kts | 356° |
| 2026-04-22 11:09 | 13.78120 | 109.05829 | 29447 ft | 500 kts | 356° |
| 2026-04-22 11:09 | 13.81563 | 109.05529 | 29622 ft | 501 kts | 356° |
| 2026-04-22 11:09 | 13.85049 | 109.05226 | 29767 ft | 501 kts | 356° |
| 2026-04-22 11:10 | 13.88541 | 109.04921 | 29864 ft | 502 kts | 356° |
| 2026-04-22 11:10 | 13.95501 | 109.04446 | 30066 ft | 504 kts | 0° |
| 2026-04-22 11:10 | 13.99020 | 109.04592 | 30172 ft | 504 kts | 6° |
| 2026-04-22 11:11 | 14.02516 | 109.05014 | 30267 ft | 504 kts | 7° |
| 2026-04-22 11:11 | 14.05958 | 109.05460 | 30408 ft | 504 kts | 7° |
| 2026-04-22 11:11 | 14.09436 | 109.05915 | 30555 ft | 503 kts | 7° |
| 2026-04-22 11:12 | 14.16410 | 109.06802 | 30706 ft | 505 kts | 7° |
| 2026-04-22 11:12 | 14.23407 | 109.07661 | 30847 ft | 506 kts | 7° |
| 2026-04-22 11:12 | 14.26862 | 109.08078 | 30970 ft | 505 kts | 7° |
| 2026-04-22 11:13 | 14.30358 | 109.08500 | 31115 ft | 504 kts | 7° |
| 2026-04-22 11:13 | 14.33844 | 109.08922 | 31237 ft | 503 kts | 7° |
| 2026-04-22 11:13 | 14.37344 | 109.09345 | 31328 ft | 503 kts | 7° |
| 2026-04-22 11:13 | 14.40820 | 109.09766 | 31434 ft | 503 kts | 7° |
| 2026-04-22 11:14 | 14.44250 | 109.10182 | 31544 ft | 502 kts | 7° |
| 2026-04-22 11:14 | 14.47720 | 109.10603 | 31666 ft | 501 kts | 7° |
| 2026-04-22 11:14 | 14.51206 | 109.11026 | 31765 ft | 501 kts | 7° |
| 2026-04-22 11:15 | 14.58138 | 109.11868 | 31920 ft | 501 kts | 7° |
| 2026-04-22 11:15 | 14.65016 | 109.12705 | 32115 ft | 500 kts | 7° |
| 2026-04-22 11:15 | 14.68493 | 109.13129 | 32253 ft | 498 kts | 7° |
| 2026-04-22 11:16 | 14.71927 | 109.13548 | 32331 ft | 498 kts | 7° |
| 2026-04-22 11:16 | 14.78842 | 109.14389 | 32476 ft | 498 kts | 7° |
| 2026-04-22 11:17 | 14.85722 | 109.15225 | 32650 ft | 497 kts | 7° |
| 2026-04-22 11:17 | 14.92592 | 109.16063 | 32797 ft | 496 kts | 7° |
| 2026-04-22 11:18 | 14.99451 | 109.16903 | 32802 ft | 497 kts | 7° |
| 2026-04-22 11:18 | 15.06325 | 109.17742 | 32810 ft | 498 kts | 7° |
| 2026-04-22 11:19 | 15.13176 | 109.18578 | 32807 ft | 498 kts | 7° |
| 2026-04-22 11:19 | 15.20104 | 109.19423 | 32805 ft | 498 kts | 7° |
| 2026-04-22 11:20 | 15.26949 | 109.20261 | 32806 ft | 498 kts | 7° |
| 2026-04-22 11:20 | 15.32720 | 109.20969 | 32803 ft | 499 kts | 7° |
| 2026-04-22 11:21 | 15.39577 | 109.21808 | 32807 ft | 498 kts | 7° |
| 2026-04-22 11:21 | 15.46450 | 109.22650 | 32805 ft | 497 kts | 7° |
| 2026-04-22 11:22 | 15.53318 | 109.23493 | 32805 ft | 497 kts | 7° |
| 2026-04-22 11:22 | 15.60185 | 109.24337 | 32806 ft | 496 kts | 7° |
| 2026-04-22 11:23 | 15.67057 | 109.25178 | 32803 ft | 496 kts | 7° |
| 2026-04-22 11:23 | 15.73911 | 109.26017 | 32808 ft | 496 kts | 7° |
| 2026-04-22 11:24 | 15.80770 | 109.26858 | 32805 ft | 496 kts | 7° |
| 2026-04-22 11:24 | 15.87591 | 109.27693 | 32805 ft | 496 kts | 7° |
| 2026-04-22 11:25 | 15.94443 | 109.28535 | 32805 ft | 495 kts | 7° |
| 2026-04-22 11:25 | 16.01303 | 109.29380 | 32804 ft | 495 kts | 7° |
| 2026-04-22 11:26 | 16.08138 | 109.30221 | 32799 ft | 496 kts | 7° |
| 2026-04-22 11:26 | 16.14972 | 109.31061 | 32788 ft | 496 kts | 7° |
| 2026-04-22 11:27 | 16.21834 | 109.31904 | 32787 ft | 496 kts | 7° |
| 2026-04-22 11:27 | 16.28727 | 109.32753 | 32787 ft | 497 kts | 7° |
| 2026-04-22 11:28 | 16.35570 | 109.33598 | 32784 ft | 496 kts | 7° |
| 2026-04-22 11:28 | 16.42445 | 109.34446 | 32785 ft | 497 kts | 7° |
| 2026-04-22 11:29 | 16.49286 | 109.35291 | 32805 ft | 497 kts | 7° |
| 2026-04-22 11:29 | 16.56187 | 109.36144 | 32806 ft | 497 kts | 7° |
| 2026-04-22 11:30 | 16.63043 | 109.36988 | 32803 ft | 497 kts | 7° |
| 2026-04-22 11:30 | 16.69906 | 109.37840 | 32805 ft | 497 kts | 7° |
| 2026-04-22 11:31 | 16.76760 | 109.38690 | 32804 ft | 498 kts | 7° |
| 2026-04-22 11:31 | 16.83657 | 109.38711 | 32813 ft | 498 kts | 354° |
| 2026-04-22 11:32 | 16.90440 | 109.37181 | 32809 ft | 499 kts | 342° |
| 2026-04-22 11:32 | 16.96994 | 109.34858 | 32812 ft | 499 kts | 342° |
| 2026-04-22 11:33 | 17.03565 | 109.32507 | 32806 ft | 499 kts | 342° |
| 2026-04-22 11:33 | 17.10193 | 109.30191 | 32807 ft | 500 kts | 342° |
| 2026-04-22 11:34 | 17.16754 | 109.27919 | 32806 ft | 500 kts | 342° |
| 2026-04-22 11:34 | 17.23358 | 109.25630 | 32806 ft | 500 kts | 342° |
| 2026-04-22 11:35 | 17.29953 | 109.23343 | 32805 ft | 499 kts | 342° |
| 2026-04-22 11:35 | 17.36550 | 109.21050 | 32805 ft | 500 kts | 342° |
| 2026-04-22 11:36 | 17.43156 | 109.18752 | 32806 ft | 500 kts | 342° |
| 2026-04-22 11:36 | 17.49838 | 109.16909 | 32806 ft | 499 kts | 351° |
| 2026-04-22 11:37 | 17.56769 | 109.16272 | 32802 ft | 498 kts | 0° |
| 2026-04-22 11:37 | 17.63698 | 109.16447 | 32802 ft | 498 kts | 1° |
| 2026-04-22 11:38 | 17.70632 | 109.16558 | 32807 ft | 498 kts | 0° |
| 2026-04-22 11:38 | 17.81057 | 109.16676 | 32804 ft | 498 kts | 0° |
| 2026-04-22 11:39 | 17.87988 | 109.16759 | 32806 ft | 499 kts | 1° |
| 2026-04-22 11:39 | 17.94925 | 109.16848 | 32804 ft | 499 kts | 0° |
| 2026-04-22 11:40 | 18.01881 | 109.16935 | 32796 ft | 499 kts | 0° |
| 2026-04-22 11:40 | 18.08803 | 109.17022 | 32804 ft | 499 kts | 0° |
| 2026-04-22 11:41 | 18.15741 | 109.17107 | 32806 ft | 499 kts | 0° |
| 2026-04-22 11:41 | 18.22671 | 109.17196 | 32806 ft | 499 kts | 0° |
| 2026-04-22 11:42 | 18.29513 | 109.18158 | 32799 ft | 498 kts | 21° |
| 2026-04-22 11:42 | 18.32573 | 109.19892 | 32811 ft | 501 kts | 34° |
| 2026-04-22 11:42 | 18.35161 | 109.22289 | 32794 ft | 504 kts | 48° |
| 2026-04-22 11:43 | 18.39465 | 109.28143 | 32809 ft | 506 kts | 51° |
| 2026-04-22 11:43 | 18.43887 | 109.33971 | 32813 ft | 505 kts | 47° |
| 2026-04-22 11:44 | 18.46423 | 109.36459 | 32796 ft | 502 kts | 32° |
| 2026-04-22 11:44 | 18.49537 | 109.38112 | 32812 ft | 498 kts | 17° |
| 2026-04-22 11:44 | 18.52884 | 109.38929 | 32812 ft | 497 kts | 6° |
| 2026-04-22 11:44 | 18.56354 | 109.38991 | 32789 ft | 497 kts | 352° |
| 2026-04-22 11:45 | 18.63085 | 109.37605 | 32807 ft | 496 kts | 347° |
| 2026-04-22 11:45 | 18.69864 | 109.36089 | 32791 ft | 498 kts | 348° |
| 2026-04-22 11:46 | 18.76641 | 109.34659 | 32797 ft | 500 kts | 348° |
| 2026-04-22 11:46 | 18.83495 | 109.33265 | 32795 ft | 501 kts | 348° |
| 2026-04-22 11:47 | 18.90349 | 109.31878 | 32792 ft | 500 kts | 348° |
| 2026-04-22 11:47 | 18.97177 | 109.30495 | 32802 ft | 500 kts | 348° |
| 2026-04-22 11:48 | 19.04005 | 109.29103 | 32787 ft | 499 kts | 348° |
| 2026-04-22 11:48 | 19.10817 | 109.27714 | 32786 ft | 498 kts | 348° |
| 2026-04-22 11:49 | 19.17611 | 109.26333 | 32786 ft | 497 kts | 348° |
| 2026-04-22 11:49 | 19.24399 | 109.24946 | 32788 ft | 496 kts | 348° |
| 2026-04-22 11:50 | 19.31166 | 109.23563 | 32777 ft | 496 kts | 347° |
| 2026-04-22 11:50 | 19.37923 | 109.22181 | 32776 ft | 495 kts | 347° |
| 2026-04-22 11:51 | 19.44707 | 109.20793 | 32778 ft | 495 kts | 347° |
| 2026-04-22 11:51 | 19.51213 | 109.18624 | 32783 ft | 490 kts | 332° |
| 2026-04-22 11:52 | 19.56819 | 109.14612 | 32771 ft | 488 kts | 316° |
| 2026-04-22 11:52 | 19.61668 | 109.09599 | 32774 ft | 489 kts | 315° |
| 2026-04-22 11:53 | 19.66530 | 109.04515 | 32782 ft | 490 kts | 315° |
| 2026-04-22 11:53 | 19.71423 | 108.99468 | 32775 ft | 490 kts | 315° |
| 2026-04-22 11:54 | 19.76328 | 108.94443 | 32770 ft | 491 kts | 315° |
| 2026-04-22 11:54 | 19.81240 | 108.89419 | 32767 ft | 491 kts | 315° |
| 2026-04-22 11:55 | 19.86155 | 108.84384 | 32770 ft | 490 kts | 315° |
| 2026-04-22 11:55 | 19.91051 | 108.79362 | 32767 ft | 490 kts | 315° |
| 2026-04-22 11:56 | 19.95962 | 108.74316 | 32769 ft | 489 kts | 315° |
| 2026-04-22 11:56 | 20.00824 | 108.69318 | 32757 ft | 488 kts | 315° |
| 2026-04-22 11:57 | 20.05709 | 108.64290 | 32770 ft | 486 kts | 315° |
| 2026-04-22 11:57 | 20.10547 | 108.59308 | 32765 ft | 484 kts | 315° |
| 2026-04-22 11:58 | 20.15388 | 108.54318 | 32768 ft | 483 kts | 315° |
| 2026-04-22 11:58 | 20.20189 | 108.49364 | 32767 ft | 482 kts | 315° |
| 2026-04-22 11:59 | 20.24986 | 108.44410 | 32769 ft | 481 kts | 314° |
| 2026-04-22 11:59 | 20.29809 | 108.39423 | 32768 ft | 481 kts | 315° |
| 2026-04-22 12:00 | 20.34605 | 108.34462 | 32769 ft | 482 kts | 314° |
| 2026-04-22 12:00 | 20.39408 | 108.29488 | 32775 ft | 482 kts | 314° |
| 2026-04-22 12:01 | 20.44210 | 108.24511 | 32768 ft | 483 kts | 314° |
| 2026-04-22 12:01 | 20.49662 | 108.20442 | 32776 ft | 486 kts | 338° |
| 2026-04-22 12:02 | 20.56379 | 108.19354 | 32781 ft | 497 kts | 3° |
| 2026-04-22 12:02 | 20.63194 | 108.20547 | 32772 ft | 500 kts | 6° |
| 2026-04-22 12:03 | 20.70066 | 108.21832 | 32774 ft | 502 kts | 6° |
| 2026-04-22 12:03 | 20.76953 | 108.23022 | 32773 ft | 504 kts | 5° |
| 2026-04-22 12:04 | 20.82737 | 108.23987 | 32774 ft | 505 kts | 5° |
| 2026-04-22 12:04 | 20.89710 | 108.25152 | 32763 ft | 506 kts | 5° |
| 2026-04-22 12:05 | 20.96636 | 108.26318 | 32759 ft | 506 kts | 5° |
| 2026-04-22 12:05 | 21.03614 | 108.27488 | 32757 ft | 506 kts | 5° |
| 2026-04-22 12:06 | 21.10565 | 108.28642 | 32757 ft | 507 kts | 5° |
| 2026-04-22 12:06 | 21.17554 | 108.29804 | 32767 ft | 507 kts | 4° |
| 2026-04-22 12:07 | 21.24567 | 108.30220 | 32768 ft | 501 kts | 353° |
| 2026-04-22 12:07 | 21.31446 | 108.29517 | 32761 ft | 498 kts | 349° |
| 2026-04-22 12:08 | 21.38332 | 108.28673 | 32769 ft | 497 kts | 349° |
| 2026-04-22 12:08 | 21.45189 | 108.27857 | 32769 ft | 498 kts | 349° |
| 2026-04-22 12:09 | 21.52076 | 108.27077 | 32769 ft | 498 kts | 349° |
| 2026-04-22 12:09 | 21.58954 | 108.26308 | 32771 ft | 498 kts | 349° |
| 2026-04-22 12:10 | 21.65865 | 108.25533 | 32762 ft | 498 kts | 349° |
| 2026-04-22 12:10 | 21.72757 | 108.24756 | 32768 ft | 497 kts | 349° |
| 2026-04-22 12:11 | 21.79629 | 108.23980 | 32767 ft | 497 kts | 349° |
| 2026-04-22 12:11 | 21.86521 | 108.23199 | 32767 ft | 497 kts | 349° |
| 2026-04-22 12:12 | 21.93386 | 108.22422 | 32768 ft | 496 kts | 349° |
| 2026-04-22 12:12 | 22.00217 | 108.21649 | 32757 ft | 496 kts | 349° |
| 2026-04-22 12:13 | 22.07108 | 108.20868 | 32761 ft | 496 kts | 349° |
| 2026-04-22 12:13 | 22.13994 | 108.20085 | 32760 ft | 497 kts | 349° |
| 2026-04-22 12:14 | 22.20862 | 108.19303 | 32759 ft | 497 kts | 349° |
| 2026-04-22 12:14 | 22.27711 | 108.18524 | 32755 ft | 497 kts | 349° |
| 2026-04-22 12:15 | 22.34574 | 108.17743 | 32758 ft | 497 kts | 349° |
| 2026-04-22 12:15 | 22.41462 | 108.16958 | 32801 ft | 496 kts | 349° |
| 2026-04-22 12:16 | 22.48302 | 108.16177 | 32805 ft | 496 kts | 349° |
| 2026-04-22 12:16 | 22.55120 | 108.15175 | 32807 ft | 486 kts | 339° |
| 2026-04-22 12:17 | 22.58252 | 108.13831 | 32819 ft | 479 kts | 328° |
| 2026-04-22 12:17 | 22.61053 | 108.11981 | 32815 ft | 475 kts | 320° |
| 2026-04-22 12:17 | 22.65744 | 108.07054 | 32822 ft | 469 kts | 310° |
| 2026-04-22 12:18 | 22.70172 | 108.01847 | 32814 ft | 472 kts | 310° |
| 2026-04-22 12:18 | 22.74686 | 107.96615 | 32813 ft | 474 kts | 310° |
| 2026-04-22 12:19 | 22.79206 | 107.91431 | 32809 ft | 475 kts | 310° |
| 2026-04-22 12:19 | 22.83733 | 107.86245 | 32805 ft | 475 kts | 310° |
| 2026-04-22 12:20 | 22.88292 | 107.81015 | 32803 ft | 474 kts | 310° |
| 2026-04-22 12:20 | 22.92801 | 107.75833 | 32808 ft | 473 kts | 310° |
| 2026-04-22 12:21 | 22.97299 | 107.70654 | 32809 ft | 472 kts | 310° |
| 2026-04-22 12:21 | 23.01798 | 107.65473 | 32808 ft | 471 kts | 310° |
| 2026-04-22 12:22 | 23.06269 | 107.60322 | 32814 ft | 470 kts | 309° |
| 2026-04-22 12:22 | 23.10759 | 107.55149 | 32816 ft | 469 kts | 309° |
| 2026-04-22 12:23 | 23.15226 | 107.49997 | 32815 ft | 468 kts | 309° |
| 2026-04-22 12:23 | 23.19670 | 107.44866 | 32813 ft | 468 kts | 309° |
| 2026-04-22 12:24 | 23.24131 | 107.39709 | 32819 ft | 468 kts | 309° |
| 2026-04-22 12:24 | 23.28580 | 107.34558 | 32823 ft | 467 kts | 309° |
| 2026-04-22 12:25 | 23.33048 | 107.29381 | 32825 ft | 467 kts | 309° |
| 2026-04-22 12:25 | 23.37487 | 107.24233 | 32814 ft | 467 kts | 309° |
| 2026-04-22 12:26 | 23.41919 | 107.19090 | 32823 ft | 467 kts | 309° |
| 2026-04-22 12:26 | 23.46365 | 107.13921 | 32828 ft | 467 kts | 309° |
| 2026-04-22 12:27 | 23.50804 | 107.08755 | 32831 ft | 467 kts | 309° |
| 2026-04-22 12:27 | 23.55244 | 107.03584 | 32829 ft | 467 kts | 309° |
| 2026-04-22 12:28 | 23.59681 | 106.98410 | 32827 ft | 467 kts | 309° |
| 2026-04-22 12:28 | 23.64102 | 106.93252 | 32838 ft | 465 kts | 309° |
| 2026-04-22 12:29 | 23.68511 | 106.88098 | 32854 ft | 466 kts | 309° |
| 2026-04-22 12:29 | 23.72950 | 106.82905 | 32842 ft | 467 kts | 309° |
| 2026-04-22 12:30 | 23.79591 | 106.75125 | 32842 ft | 467 kts | 309° |
| 2026-04-22 12:31 | 23.84008 | 106.69944 | 32848 ft | 465 kts | 309° |
| 2026-04-22 12:31 | 23.88410 | 106.64795 | 32846 ft | 464 kts | 311° |
| 2026-04-22 12:31 | 23.90931 | 106.62549 | 32865 ft | 471 kts | 322° |
| 2026-04-22 12:32 | 23.93832 | 106.60771 | 32868 ft | 478 kts | 329° |
| 2026-04-22 12:32 | 24.00212 | 106.58565 | 32874 ft | 491 kts | 343° |
| 2026-04-22 12:32 | 24.03600 | 106.57972 | 32866 ft | 493 kts | 344° |
| 2026-04-22 12:33 | 24.10388 | 106.56885 | 32877 ft | 494 kts | 344° |
| 2026-04-22 12:33 | 24.17191 | 106.55740 | 32885 ft | 495 kts | 343° |
| 2026-04-22 12:34 | 24.24003 | 106.54532 | 32891 ft | 496 kts | 343° |
| 2026-04-22 12:34 | 24.30840 | 106.53298 | 32898 ft | 496 kts | 343° |
| 2026-04-22 12:35 | 24.37665 | 106.52067 | 32891 ft | 496 kts | 343° |
| 2026-04-22 12:35 | 24.44441 | 106.50847 | 32908 ft | 496 kts | 343° |
| 2026-04-22 12:36 | 24.51262 | 106.49619 | 32907 ft | 496 kts | 343° |
| 2026-04-22 12:36 | 24.58069 | 106.48393 | 32910 ft | 495 kts | 343° |
| 2026-04-22 12:37 | 24.64863 | 106.47166 | 32914 ft | 494 kts | 343° |
| 2026-04-22 12:37 | 24.71635 | 106.45943 | 32924 ft | 493 kts | 343° |
| 2026-04-22 12:38 | 24.78391 | 106.44722 | 32935 ft | 492 kts | 342° |
| 2026-04-22 12:38 | 24.85174 | 106.43492 | 32938 ft | 492 kts | 342° |
| 2026-04-22 12:39 | 24.95308 | 106.41651 | 32941 ft | 493 kts | 342° |
| 2026-04-22 12:40 | 25.02072 | 106.40424 | 32945 ft | 493 kts | 342° |
| 2026-04-22 12:40 | 25.08831 | 106.39199 | 32959 ft | 493 kts | 342° |
| 2026-04-22 12:41 | 25.15626 | 106.37957 | 33002 ft | 493 kts | 342° |
| 2026-04-22 12:41 | 25.22378 | 106.36727 | 32965 ft | 493 kts | 342° |
| 2026-04-22 12:42 | 25.29133 | 106.35493 | 32972 ft | 494 kts | 341° |
| 2026-04-22 12:42 | 25.35949 | 106.34244 | 33002 ft | 495 kts | 341° |
| 2026-04-22 12:43 | 25.42760 | 106.32994 | 32998 ft | 497 kts | 341° |
| 2026-04-22 12:43 | 25.49571 | 106.31747 | 32999 ft | 498 kts | 341° |
| 2026-04-22 12:44 | 25.56404 | 106.30495 | 32998 ft | 499 kts | 341° |
| 2026-04-22 12:44 | 25.63248 | 106.29239 | 33008 ft | 499 kts | 341° |
| 2026-04-22 12:45 | 25.70134 | 106.27975 | 33013 ft | 499 kts | 341° |
| 2026-04-22 12:45 | 25.76971 | 106.26716 | 33009 ft | 499 kts | 341° |
| 2026-04-22 12:46 | 25.83832 | 106.25452 | 33005 ft | 498 kts | 341° |
| 2026-04-22 12:46 | 25.90650 | 106.24192 | 33001 ft | 498 kts | 341° |
| 2026-04-22 12:47 | 25.96361 | 106.23137 | 33012 ft | 498 kts | 341° |
| 2026-04-22 12:47 | 26.04338 | 106.21663 | 33020 ft | 498 kts | 341° |
| 2026-04-22 12:48 | 26.11165 | 106.20397 | 33023 ft | 498 kts | 341° |
| 2026-04-22 12:48 | 26.18003 | 106.19129 | 33017 ft | 498 kts | 341° |
| 2026-04-22 12:49 | 26.24821 | 106.17863 | 33017 ft | 498 kts | 341° |
| 2026-04-22 12:49 | 26.30518 | 106.16804 | 33020 ft | 498 kts | 340° |
| 2026-04-22 12:50 | 26.37341 | 106.15535 | 33019 ft | 498 kts | 340° |
| 2026-04-22 12:50 | 26.44169 | 106.14261 | 33015 ft | 497 kts | 340° |
| 2026-04-22 12:51 | 26.51006 | 106.12985 | 33023 ft | 498 kts | 341° |
| 2026-04-22 12:51 | 26.57833 | 106.11708 | 33022 ft | 497 kts | 341° |
| 2026-04-22 12:52 | 26.64636 | 106.10439 | 33016 ft | 496 kts | 341° |
| 2026-04-22 12:52 | 26.71463 | 106.09158 | 33013 ft | 496 kts | 340° |
| 2026-04-22 12:53 | 26.78248 | 106.07884 | 33025 ft | 496 kts | 340° |
| 2026-04-22 12:53 | 26.85054 | 106.06606 | 33016 ft | 496 kts | 340° |
| 2026-04-22 12:54 | 26.91867 | 106.05324 | 33027 ft | 494 kts | 340° |
| 2026-04-22 12:54 | 26.98711 | 106.04715 | 33009 ft | 517 kts | 359° |
| 2026-04-22 12:54 | 27.02257 | 106.05849 | 33014 ft | 541 kts | 16° |
| 2026-04-22 12:55 | 27.05529 | 106.08098 | 33017 ft | 562 kts | 32° |
| 2026-04-22 12:55 | 27.08274 | 106.11318 | 33009 ft | 579 kts | 50° |
| 2026-04-22 12:55 | 27.10264 | 106.15210 | 33020 ft | 581 kts | 58° |
| 2026-04-22 12:55 | 27.12381 | 106.19033 | 33008 ft | 572 kts | 45° |
| 2026-04-22 12:56 | 27.15141 | 106.22168 | 33012 ft | 556 kts | 28° |
| 2026-04-22 12:56 | 27.18438 | 106.24279 | 33013 ft | 533 kts | 11° |
| 2026-04-22 12:56 | 27.21949 | 106.25254 | 33016 ft | 509 kts | 355° |
| 2026-04-22 12:56 | 27.25389 | 106.25296 | 33017 ft | 492 kts | 344° |
| 2026-04-22 12:57 | 27.28750 | 106.24711 | 33051 ft | 481 kts | 337° |
| 2026-04-22 12:57 | 27.35071 | 106.22499 | 33018 ft | 467 kts | 324° |
| 2026-04-22 12:57 | 27.37687 | 106.20568 | 33015 ft | 444 kts | 311° |
| 2026-04-22 12:58 | 27.39993 | 106.18239 | 33017 ft | 444 kts | 310° |
| 2026-04-22 12:58 | 27.44587 | 106.13558 | 33026 ft | 448 kts | 310° |
| 2026-04-22 12:59 | 27.49262 | 106.08913 | 33023 ft | 450 kts | 311° |
| 2026-04-22 12:59 | 27.54025 | 106.04243 | 33015 ft | 452 kts | 311° |
| 2026-04-22 13:00 | 27.58753 | 105.99595 | 33020 ft | 453 kts | 311° |
| 2026-04-22 13:00 | 27.63510 | 105.94925 | 33019 ft | 452 kts | 311° |
| 2026-04-22 13:01 | 27.68223 | 105.90292 | 33013 ft | 451 kts | 310° |
| 2026-04-22 13:01 | 27.72190 | 105.84979 | 33027 ft | 435 kts | 296° |
| 2026-04-22 13:02 | 27.75002 | 105.79010 | 33016 ft | 429 kts | 286° |
| 2026-04-22 13:02 | 27.76771 | 105.72635 | 33043 ft | 427 kts | 283° |
| 2026-04-22 13:03 | 27.78535 | 105.66214 | 33024 ft | 429 kts | 284° |
| 2026-04-22 13:03 | 27.80485 | 105.59796 | 33018 ft | 432 kts | 288° |
| 2026-04-22 13:04 | 27.82916 | 105.53588 | 33025 ft | 434 kts | 289° |
| 2026-04-22 13:04 | 27.85342 | 105.47340 | 33018 ft | 434 kts | 289° |
| 2026-04-22 13:05 | 27.88358 | 105.41427 | 33028 ft | 444 kts | 304° |
| 2026-04-22 13:05 | 27.92897 | 105.36616 | 33025 ft | 456 kts | 316° |
| 2026-04-22 13:06 | 27.98607 | 105.33209 | 33005 ft | 468 kts | 326° |
| 2026-04-22 13:06 | 28.04501 | 105.30117 | 33009 ft | 468 kts | 326° |
| 2026-04-22 13:07 | 28.10425 | 105.26933 | 32986 ft | 470 kts | 325° |
| 2026-04-22 13:07 | 28.16305 | 105.23720 | 33003 ft | 472 kts | 325° |
| 2026-04-22 13:08 | 28.22226 | 105.20462 | 33012 ft | 475 kts | 325° |
| 2026-04-22 13:08 | 28.28153 | 105.17200 | 33013 ft | 476 kts | 325° |
| 2026-04-22 13:09 | 28.34141 | 105.13906 | 33001 ft | 477 kts | 325° |
| 2026-04-22 13:09 | 28.40134 | 105.10611 | 33000 ft | 477 kts | 325° |
| 2026-04-22 13:10 | 28.46078 | 105.07328 | 33010 ft | 476 kts | 325° |
| 2026-04-22 13:10 | 28.52004 | 105.04059 | 33006 ft | 475 kts | 325° |
| 2026-04-22 13:11 | 28.57978 | 105.00763 | 33011 ft | 475 kts | 325° |
| 2026-04-22 13:11 | 28.63862 | 104.97504 | 33002 ft | 475 kts | 325° |
| 2026-04-22 13:12 | 28.69838 | 104.94198 | 33006 ft | 476 kts | 325° |
| 2026-04-22 13:12 | 28.75770 | 104.90910 | 33014 ft | 478 kts | 325° |
| 2026-04-22 13:13 | 28.81774 | 104.87586 | 33010 ft | 479 kts | 326° |
| 2026-04-22 13:13 | 28.87756 | 104.84266 | 33010 ft | 480 kts | 326° |
| 2026-04-22 13:14 | 28.93768 | 104.80912 | 33005 ft | 481 kts | 325° |
| 2026-04-22 13:14 | 28.99776 | 104.77546 | 33017 ft | 482 kts | 325° |
| 2026-04-22 13:15 | 29.05806 | 104.74161 | 33007 ft | 484 kts | 326° |
| 2026-04-22 13:15 | 29.11870 | 104.70759 | 33031 ft | 485 kts | 326° |
| 2026-04-22 13:16 | 29.17902 | 104.67371 | 33040 ft | 481 kts | 326° |
| 2026-04-22 13:16 | 29.20875 | 104.65708 | 33027 ft | 464 kts | 325° |
| 2026-04-22 13:16 | 29.23703 | 104.64123 | 33027 ft | 449 kts | 325° |
| 2026-04-22 13:16 | 29.26465 | 104.62570 | 33031 ft | 436 kts | 325° |
| 2026-04-22 13:17 | 29.29291 | 104.61207 | 33054 ft | 445 kts | 332° |
| 2026-04-22 13:17 | 29.32314 | 104.60204 | 33065 ft | 458 kts | 338° |
| 2026-04-22 13:17 | 29.35499 | 104.59524 | 33056 ft | 473 kts | 345° |
| 2026-04-22 13:18 | 29.42133 | 104.58924 | 33046 ft | 482 kts | 348° |
| 2026-04-22 13:18 | 29.48850 | 104.58456 | 33049 ft | 483 kts | 348° |
| 2026-04-22 13:19 | 29.55552 | 104.57956 | 33033 ft | 482 kts | 347° |
| 2026-04-22 13:19 | 29.62217 | 104.57417 | 33044 ft | 481 kts | 347° |
| 2026-04-22 13:20 | 29.68909 | 104.56858 | 33038 ft | 480 kts | 347° |
| 2026-04-22 13:20 | 29.75567 | 104.56304 | 33046 ft | 479 kts | 347° |
| 2026-04-22 13:21 | 29.82185 | 104.55753 | 33043 ft | 480 kts | 348° |
| 2026-04-22 13:21 | 29.88886 | 104.55195 | 33050 ft | 481 kts | 348° |
| 2026-04-22 13:22 | 29.95570 | 104.54640 | 33048 ft | 483 kts | 348° |
| 2026-04-22 13:22 | 30.02263 | 104.54083 | 33049 ft | 484 kts | 348° |
| 2026-04-22 13:23 | 30.09006 | 104.53520 | 33048 ft | 486 kts | 348° |
| 2026-04-22 13:23 | 30.15775 | 104.52956 | 33048 ft | 488 kts | 348° |
| 2026-04-22 13:24 | 30.22523 | 104.52393 | 33050 ft | 488 kts | 348° |
| 2026-04-22 13:24 | 30.29312 | 104.51825 | 33038 ft | 488 kts | 348° |
| 2026-04-22 13:25 | 30.36059 | 104.51262 | 33043 ft | 486 kts | 348° |
| 2026-04-22 13:25 | 30.42816 | 104.50696 | 33043 ft | 485 kts | 348° |
| 2026-04-22 13:26 | 30.49545 | 104.50133 | 33056 ft | 484 kts | 347° |
| 2026-04-22 13:26 | 30.56274 | 104.49567 | 33058 ft | 484 kts | 347° |
| 2026-04-22 13:27 | 30.62826 | 104.48412 | 33056 ft | 472 kts | 336° |
| 2026-04-22 13:27 | 30.69020 | 104.46074 | 33054 ft | 465 kts | 332° |
| 2026-04-22 13:28 | 30.75132 | 104.43646 | 33060 ft | 468 kts | 332° |
| 2026-04-22 13:28 | 30.81311 | 104.41262 | 33056 ft | 469 kts | 333° |
| 2026-04-22 13:29 | 30.87657 | 104.39280 | 33062 ft | 479 kts | 341° |
| 2026-04-22 13:29 | 30.94406 | 104.38656 | 33063 ft | 489 kts | 350° |
| 2026-04-22 13:30 | 31.01190 | 104.38562 | 33067 ft | 489 kts | 351° |
| 2026-04-22 13:30 | 31.07959 | 104.38442 | 33065 ft | 487 kts | 350° |
| 2026-04-22 13:31 | 31.14745 | 104.38268 | 33068 ft | 487 kts | 349° |
| 2026-04-22 13:31 | 31.21553 | 104.38085 | 33064 ft | 487 kts | 349° |
| 2026-04-22 13:32 | 31.28312 | 104.37868 | 33059 ft | 485 kts | 348° |
| 2026-04-22 13:32 | 31.35027 | 104.37456 | 33065 ft | 484 kts | 347° |
| 2026-04-22 13:33 | 31.41793 | 104.37024 | 33062 ft | 484 kts | 347° |
| 2026-04-22 13:33 | 31.48499 | 104.36627 | 33062 ft | 484 kts | 347° |
| 2026-04-22 13:34 | 31.54075 | 104.36304 | 33067 ft | 483 kts | 347° |
| 2026-04-22 13:34 | 31.60804 | 104.35919 | 33061 ft | 483 kts | 347° |
| 2026-04-22 13:35 | 31.67546 | 104.35530 | 33062 ft | 483 kts | 347° |
| 2026-04-22 13:35 | 31.74221 | 104.35145 | 33047 ft | 482 kts | 347° |
| 2026-04-22 13:36 | 31.80916 | 104.34769 | 33061 ft | 481 kts | 348° |
| 2026-04-22 13:36 | 31.87619 | 104.34426 | 33069 ft | 481 kts | 347° |
| 2026-04-22 13:37 | 31.94344 | 104.34085 | 33082 ft | 483 kts | 347° |
| 2026-04-22 13:37 | 32.02160 | 104.33681 | 33080 ft | 486 kts | 347° |
| 2026-04-22 13:38 | 32.07811 | 104.33397 | 33043 ft | 486 kts | 347° |
| 2026-04-22 13:38 | 32.17908 | 104.32881 | 33060 ft | 484 kts | 347° |
| 2026-04-22 13:39 | 32.24684 | 104.32527 | 33060 ft | 485 kts | 347° |
| 2026-04-22 13:39 | 32.31395 | 104.32188 | 33073 ft | 484 kts | 347° |
| 2026-04-22 13:40 | 32.38106 | 104.31849 | 33062 ft | 483 kts | 347° |
| 2026-04-22 13:40 | 32.44798 | 104.31500 | 33075 ft | 482 kts | 347° |
| 2026-04-22 13:41 | 32.51531 | 104.31161 | 33070 ft | 483 kts | 347° |
| 2026-04-22 13:41 | 32.58212 | 104.30828 | 33091 ft | 483 kts | 347° |
| 2026-04-22 13:42 | 32.64967 | 104.30493 | 33074 ft | 484 kts | 347° |
| 2026-04-22 13:42 | 32.71674 | 104.30178 | 33066 ft | 482 kts | 347° |
| 2026-04-22 13:43 | 32.78361 | 104.29861 | 33088 ft | 480 kts | 347° |
| 2026-04-22 13:43 | 32.84993 | 104.29547 | 33066 ft | 477 kts | 347° |
| 2026-04-22 13:44 | 32.91644 | 104.29223 | 33067 ft | 475 kts | 347° |
| 2026-04-22 13:44 | 32.98224 | 104.28896 | 33092 ft | 476 kts | 347° |
| 2026-04-22 13:45 | 33.04836 | 104.28576 | 33078 ft | 477 kts | 347° |
| 2026-04-22 13:45 | 33.11504 | 104.28265 | 33073 ft | 476 kts | 347° |
| 2026-04-22 13:46 | 33.18096 | 104.27944 | 33099 ft | 476 kts | 347° |
| 2026-04-22 13:46 | 33.24729 | 104.27621 | 33079 ft | 479 kts | 347° |
| 2026-04-22 13:47 | 33.31382 | 104.27271 | 33072 ft | 474 kts | 343° |
| 2026-04-22 13:47 | 33.34586 | 104.26634 | 33071 ft | 458 kts | 334° |
| 2026-04-22 13:47 | 33.37596 | 104.25516 | 33079 ft | 447 kts | 328° |
| 2026-04-22 13:48 | 33.40385 | 104.24036 | 33055 ft | 434 kts | 320° |
| 2026-04-22 13:48 | 33.42977 | 104.22253 | 33077 ft | 429 kts | 319° |
| 2026-04-22 13:48 | 33.48130 | 104.18638 | 33074 ft | 428 kts | 319° |
| 2026-04-22 13:49 | 33.53290 | 104.15096 | 33090 ft | 429 kts | 319° |
| 2026-04-22 13:49 | 33.58792 | 104.12125 | 33102 ft | 450 kts | 333° |
| 2026-04-22 13:50 | 33.61892 | 104.11306 | 33098 ft | 461 kts | 340° |
| 2026-04-22 13:50 | 33.65153 | 104.10996 | 33099 ft | 474 kts | 348° |
| 2026-04-22 13:50 | 33.71759 | 104.11010 | 33093 ft | 477 kts | 350° |
| 2026-04-22 13:51 | 33.78385 | 104.11122 | 33097 ft | 476 kts | 349° |
| 2026-04-22 13:51 | 33.85015 | 104.11178 | 33085 ft | 474 kts | 349° |
| 2026-04-22 13:52 | 33.91629 | 104.11185 | 33074 ft | 475 kts | 349° |
| 2026-04-22 13:52 | 33.98216 | 104.11182 | 33086 ft | 474 kts | 349° |
| 2026-04-22 13:53 | 34.04827 | 104.11181 | 33082 ft | 473 kts | 349° |
| 2026-04-22 13:53 | 34.11378 | 104.11181 | 33088 ft | 472 kts | 349° |
| 2026-04-22 13:54 | 34.17950 | 104.11181 | 33086 ft | 472 kts | 349° |
| 2026-04-22 13:54 | 34.24517 | 104.11180 | 33092 ft | 472 kts | 349° |
| 2026-04-22 13:55 | 34.31097 | 104.11180 | 33106 ft | 472 kts | 349° |
| 2026-04-22 13:55 | 34.37656 | 104.11176 | 33093 ft | 473 kts | 349° |
| 2026-04-22 13:56 | 34.44274 | 104.11176 | 33076 ft | 474 kts | 349° |
| 2026-04-22 13:56 | 34.50854 | 104.11181 | 33104 ft | 473 kts | 349° |
| 2026-04-22 13:57 | 34.57417 | 104.11181 | 33114 ft | 472 kts | 349° |
| 2026-04-22 13:57 | 34.63988 | 104.11178 | 33098 ft | 471 kts | 350° |
| 2026-04-22 13:58 | 34.70503 | 104.11182 | 33117 ft | 469 kts | 350° |
| 2026-04-22 13:58 | 34.77000 | 104.11183 | 33105 ft | 467 kts | 350° |
| 2026-04-22 13:59 | 34.83525 | 104.11180 | 33107 ft | 467 kts | 351° |
| 2026-04-22 13:59 | 34.89999 | 104.11183 | 33100 ft | 466 kts | 351° |
| 2026-04-22 14:00 | 34.96458 | 104.11186 | 33094 ft | 464 kts | 351° |
| 2026-04-22 14:00 | 35.02936 | 104.11186 | 33110 ft | 463 kts | 351° |
| 2026-04-22 14:01 | 35.09356 | 104.11182 | 33114 ft | 462 kts | 352° |
| 2026-04-22 14:01 | 35.15817 | 104.11182 | 33106 ft | 462 kts | 352° |
| 2026-04-22 14:02 | 35.22208 | 104.11187 | 33104 ft | 460 kts | 352° |
| 2026-04-22 14:02 | 35.28571 | 104.11187 | 33118 ft | 458 kts | 353° |
| 2026-04-22 14:03 | 35.34939 | 104.11190 | 33115 ft | 456 kts | 353° |
| 2026-04-22 14:03 | 35.41313 | 104.11190 | 33119 ft | 456 kts | 353° |
| 2026-04-22 14:04 | 35.47632 | 104.11194 | 33123 ft | 455 kts | 353° |
| 2026-04-22 14:04 | 35.53933 | 104.11199 | 33128 ft | 453 kts | 354° |
| 2026-04-22 14:05 | 35.60265 | 104.11217 | 33115 ft | 453 kts | 354° |
| 2026-04-22 14:06 | 35.69680 | 104.11250 | 33120 ft | 451 kts | 354° |
| 2026-04-22 14:06 | 35.75962 | 104.11272 | 33115 ft | 450 kts | 354° |
| 2026-04-22 14:07 | 35.82210 | 104.11288 | 33123 ft | 450 kts | 354° |
| 2026-04-22 14:07 | 35.88427 | 104.10777 | 33123 ft | 446 kts | 349° |
| 2026-04-22 14:08 | 35.94657 | 104.10037 | 33144 ft | 459 kts | 349° |
| 2026-04-22 14:08 | 36.01142 | 104.09298 | 33132 ft | 474 kts | 350° |
| 2026-04-22 14:09 | 36.07774 | 104.08579 | 33140 ft | 486 kts | 350° |
| 2026-04-22 14:09 | 36.14574 | 104.07848 | 33141 ft | 495 kts | 350° |
| 2026-04-22 14:10 | 36.21491 | 104.07102 | 33130 ft | 502 kts | 350° |
| 2026-04-22 14:10 | 36.28477 | 104.06335 | 33133 ft | 507 kts | 350° |
| 2026-04-22 14:11 | 36.35534 | 104.05557 | 33135 ft | 511 kts | 350° |
| 2026-04-22 14:11 | 36.42650 | 104.04774 | 33128 ft | 513 kts | 350° |
| 2026-04-22 14:11 | 36.46159 | 104.04392 | 33282 ft | 505 kts | 350° |
| 2026-04-22 14:12 | 36.49634 | 104.04015 | 33291 ft | 497 kts | 350° |
| 2026-04-22 14:12 | 36.56476 | 104.03263 | 33134 ft | 489 kts | 350° |
| 2026-04-22 14:13 | 36.63229 | 104.02363 | 33130 ft | 486 kts | 345° |
| 2026-04-22 14:13 | 36.69804 | 104.00673 | 33135 ft | 484 kts | 343° |
| 2026-04-22 14:14 | 36.76399 | 103.98962 | 33131 ft | 485 kts | 344° |
| 2026-04-22 14:14 | 36.83026 | 103.97303 | 33131 ft | 485 kts | 345° |
| 2026-04-22 14:15 | 36.89611 | 103.95653 | 33130 ft | 485 kts | 345° |
| 2026-04-22 14:15 | 36.96257 | 103.93983 | 33144 ft | 485 kts | 345° |
| 2026-04-22 14:16 | 37.02837 | 103.92332 | 33166 ft | 485 kts | 345° |
| 2026-04-22 14:16 | 37.09457 | 103.90667 | 33151 ft | 484 kts | 345° |
| 2026-04-22 14:17 | 37.16047 | 103.89001 | 33157 ft | 484 kts | 345° |
| 2026-04-22 14:17 | 37.22653 | 103.87322 | 33161 ft | 483 kts | 345° |
| 2026-04-22 14:18 | 37.29253 | 103.85629 | 33170 ft | 482 kts | 343° |
| 2026-04-22 14:18 | 37.35584 | 103.83076 | 33143 ft | 477 kts | 334° |
| 2026-04-22 14:19 | 37.41644 | 103.79720 | 33150 ft | 476 kts | 333° |
| 2026-04-22 14:19 | 37.47726 | 103.76364 | 33148 ft | 477 kts | 334° |
| 2026-04-22 14:20 | 37.55859 | 103.71950 | 33146 ft | 477 kts | 334° |
| 2026-04-22 14:20 | 37.61952 | 103.68634 | 33146 ft | 477 kts | 334° |
| 2026-04-22 14:21 | 37.71070 | 103.63661 | 33145 ft | 477 kts | 334° |
| 2026-04-22 14:22 | 37.80175 | 103.58693 | 33146 ft | 477 kts | 334° |
| 2026-04-22 14:23 | 37.89318 | 103.53687 | 33146 ft | 477 kts | 334° |
| 2026-04-22 14:23 | 37.96222 | 103.49899 | 33148 ft | 477 kts | 334° |
| 2026-04-22 14:24 | 38.02294 | 103.46563 | 33150 ft | 477 kts | 334° |
| 2026-04-22 14:24 | 38.08378 | 103.43211 | 33148 ft | 478 kts | 334° |
| 2026-04-22 14:25 | 38.14475 | 103.39847 | 33148 ft | 477 kts | 334° |
| 2026-04-22 14:25 | 38.20567 | 103.36482 | 33147 ft | 477 kts | 334° |
| 2026-04-22 14:26 | 38.26624 | 103.33128 | 33145 ft | 477 kts | 334° |
| 2026-04-22 14:26 | 38.32734 | 103.29741 | 33136 ft | 476 kts | 334° |
| 2026-04-22 14:27 | 38.38790 | 103.26373 | 33142 ft | 476 kts | 334° |
| 2026-04-22 14:27 | 38.44858 | 103.22996 | 33135 ft | 476 kts | 334° |
| 2026-04-22 14:28 | 38.50904 | 103.19624 | 33140 ft | 476 kts | 334° |
| 2026-04-22 14:28 | 38.56973 | 103.16229 | 33138 ft | 476 kts | 334° |
| 2026-04-22 14:29 | 38.63041 | 103.12833 | 33141 ft | 476 kts | 334° |
| 2026-04-22 14:29 | 38.69109 | 103.09432 | 33138 ft | 476 kts | 334° |
| 2026-04-22 14:30 | 38.75185 | 103.06017 | 33134 ft | 476 kts | 334° |
| 2026-04-22 14:30 | 38.80212 | 103.03189 | 33129 ft | 476 kts | 334° |
| 2026-04-22 14:31 | 38.87280 | 102.99204 | 33131 ft | 475 kts | 334° |
| 2026-04-22 14:31 | 38.92335 | 102.96347 | 33129 ft | 475 kts | 334° |
| 2026-04-22 14:32 | 38.98367 | 102.92932 | 33128 ft | 475 kts | 334° |
| 2026-04-22 14:32 | 39.04424 | 102.89500 | 33123 ft | 476 kts | 334° |
| 2026-04-22 14:33 | 39.10472 | 102.86065 | 33122 ft | 476 kts | 334° |
| 2026-04-22 14:33 | 39.16525 | 102.82621 | 33120 ft | 476 kts | 334° |
| 2026-04-22 14:34 | 39.22599 | 102.79160 | 33113 ft | 476 kts | 334° |
| 2026-04-22 14:34 | 39.28672 | 102.75692 | 33113 ft | 476 kts | 334° |
| 2026-04-22 14:35 | 39.34725 | 102.72229 | 33110 ft | 477 kts | 334° |
| 2026-04-22 14:35 | 39.40833 | 102.68976 | 33093 ft | 479 kts | 341° |
| 2026-04-22 14:36 | 39.47399 | 102.67314 | 33116 ft | 482 kts | 352° |
| 2026-04-22 14:36 | 39.54148 | 102.67176 | 33114 ft | 485 kts | 358° |
| 2026-04-22 14:37 | 39.60892 | 102.67361 | 33104 ft | 485 kts | 358° |
| 2026-04-22 14:37 | 39.67618 | 102.67528 | 33090 ft | 485 kts | 358° |
| 2026-04-22 14:38 | 39.74372 | 102.67647 | 33094 ft | 486 kts | 358° |
| 2026-04-22 14:38 | 39.81125 | 102.67749 | 33090 ft | 486 kts | 358° |
| 2026-04-22 14:39 | 39.87912 | 102.67849 | 33093 ft | 486 kts | 358° |
| 2026-04-22 14:39 | 39.94666 | 102.67950 | 33084 ft | 486 kts | 358° |
| 2026-04-22 14:40 | 40.04825 | 102.68105 | 33086 ft | 486 kts | 358° |
| 2026-04-22 14:40 | 40.11566 | 102.68207 | 33081 ft | 486 kts | 358° |
| 2026-04-22 14:41 | 40.18353 | 102.68314 | 33072 ft | 486 kts | 358° |
| 2026-04-22 14:41 | 40.25095 | 102.68419 | 33071 ft | 485 kts | 358° |
| 2026-04-22 14:42 | 40.31841 | 102.68524 | 33073 ft | 485 kts | 358° |
| 2026-04-22 14:42 | 40.38561 | 102.68628 | 33066 ft | 484 kts | 358° |
| 2026-04-22 14:43 | 40.45289 | 102.68730 | 33066 ft | 483 kts | 358° |
| 2026-04-22 14:43 | 40.51990 | 102.68836 | 33063 ft | 483 kts | 358° |
| 2026-04-22 14:44 | 40.58729 | 102.68940 | 33064 ft | 483 kts | 358° |
| 2026-04-22 14:44 | 40.65440 | 102.69045 | 33055 ft | 483 kts | 358° |
| 2026-04-22 14:45 | 40.72137 | 102.69150 | 33056 ft | 483 kts | 358° |
| 2026-04-22 14:45 | 40.78880 | 102.69254 | 33058 ft | 482 kts | 358° |
| 2026-04-22 14:46 | 40.85593 | 102.69361 | 33046 ft | 483 kts | 358° |
| 2026-04-22 14:46 | 40.92293 | 102.69467 | 33050 ft | 483 kts | 358° |
| 2026-04-22 14:47 | 40.99001 | 102.69573 | 33056 ft | 483 kts | 358° |
| 2026-04-22 14:47 | 41.05706 | 102.69680 | 33057 ft | 483 kts | 358° |
| 2026-04-22 14:48 | 41.12412 | 102.69787 | 33054 ft | 482 kts | 358° |
| 2026-04-22 14:48 | 41.19122 | 102.69894 | 33044 ft | 482 kts | 358° |
| 2026-04-22 14:49 | 41.25814 | 102.70001 | 33049 ft | 482 kts | 358° |
| 2026-04-22 14:49 | 41.32547 | 102.70112 | 33049 ft | 482 kts | 358° |
| 2026-04-22 14:50 | 41.39237 | 102.70222 | 33035 ft | 482 kts | 359° |
| 2026-04-22 14:50 | 41.45925 | 102.70323 | 33035 ft | 481 kts | 358° |
| 2026-04-22 14:51 | 41.52602 | 102.70370 | 33039 ft | 481 kts | 358° |
| 2026-04-22 14:51 | 41.59309 | 102.70422 | 33033 ft | 480 kts | 358° |
| 2026-04-22 14:52 | 41.65976 | 102.70548 | 33028 ft | 481 kts | 1° |
| 2026-04-22 14:52 | 41.72601 | 102.71868 | 33032 ft | 483 kts | 11° |
| 2026-04-22 14:53 | 41.79117 | 102.73990 | 33028 ft | 483 kts | 11° |
| 2026-04-22 14:53 | 41.85625 | 102.76096 | 33019 ft | 483 kts | 11° |
| 2026-04-22 14:54 | 41.92193 | 102.78177 | 33017 ft | 483 kts | 11° |
| 2026-04-22 14:54 | 41.98722 | 102.80135 | 33018 ft | 478 kts | 4° |
| 2026-04-22 14:55 | 42.02014 | 102.80050 | 33021 ft | 474 kts | 348° |
| 2026-04-22 14:55 | 42.05186 | 102.78856 | 33020 ft | 473 kts | 337° |
| 2026-04-22 14:55 | 42.08094 | 102.76780 | 33011 ft | 472 kts | 323° |
| 2026-04-22 14:55 | 42.10602 | 102.74037 | 33029 ft | 469 kts | 320° |
| 2026-04-22 14:56 | 42.15637 | 102.68356 | 33020 ft | 472 kts | 320° |
| 2026-04-22 14:56 | 42.20696 | 102.62723 | 33014 ft | 474 kts | 321° |
| 2026-04-22 14:57 | 42.25834 | 102.57066 | 33006 ft | 476 kts | 321° |
| 2026-04-22 14:57 | 42.30968 | 102.51433 | 33000 ft | 477 kts | 321° |
| 2026-04-22 14:58 | 42.36110 | 102.45776 | 32998 ft | 477 kts | 321° |
| 2026-04-22 14:58 | 42.41251 | 102.40103 | 33000 ft | 476 kts | 321° |
| 2026-04-22 14:59 | 42.46358 | 102.34458 | 32999 ft | 476 kts | 321° |
| 2026-04-22 14:59 | 42.51492 | 102.28768 | 32989 ft | 475 kts | 321° |
| 2026-04-22 15:00 | 42.56584 | 102.23114 | 32983 ft | 474 kts | 321° |
| 2026-04-22 15:00 | 42.61687 | 102.17436 | 32996 ft | 474 kts | 321° |
| 2026-04-22 15:01 | 42.66792 | 102.11741 | 32995 ft | 473 kts | 321° |
| 2026-04-22 15:01 | 42.71874 | 102.06060 | 32981 ft | 473 kts | 321° |
| 2026-04-22 15:02 | 42.76932 | 102.00395 | 32976 ft | 472 kts | 321° |
| 2026-04-22 15:02 | 42.82023 | 101.94680 | 32982 ft | 472 kts | 321° |
| 2026-04-22 15:03 | 42.87076 | 101.88995 | 32975 ft | 472 kts | 321° |
| 2026-04-22 15:03 | 42.92125 | 101.83301 | 32986 ft | 471 kts | 321° |
| 2026-04-22 15:04 | 42.97176 | 101.77593 | 32978 ft | 471 kts | 321° |
| 2026-04-22 15:04 | 43.02198 | 101.71906 | 32976 ft | 470 kts | 320° |
| 2026-04-22 15:05 | 43.07240 | 101.66182 | 32967 ft | 470 kts | 320° |
| 2026-04-22 15:05 | 43.12251 | 101.60483 | 32966 ft | 469 kts | 320° |
| 2026-04-22 15:06 | 43.17267 | 101.54770 | 32956 ft | 468 kts | 320° |
| 2026-04-22 15:06 | 43.22268 | 101.49054 | 32955 ft | 467 kts | 320° |
| 2026-04-22 15:07 | 43.27271 | 101.43320 | 32954 ft | 466 kts | 320° |
| 2026-04-22 15:07 | 43.32246 | 101.37612 | 32953 ft | 466 kts | 320° |
| 2026-04-22 15:08 | 43.37219 | 101.31893 | 32952 ft | 466 kts | 320° |
| 2026-04-22 15:08 | 43.42151 | 101.26207 | 32955 ft | 465 kts | 320° |
| 2026-04-22 15:09 | 43.47134 | 101.20447 | 32949 ft | 465 kts | 320° |
| 2026-04-22 15:09 | 43.52088 | 101.14711 | 32945 ft | 465 kts | 319° |
| 2026-04-22 15:10 | 43.57029 | 101.08982 | 32945 ft | 465 kts | 319° |
| 2026-04-22 15:10 | 43.61976 | 101.03231 | 32941 ft | 466 kts | 319° |
| 2026-04-22 15:11 | 43.66936 | 100.97448 | 32945 ft | 466 kts | 319° |
| 2026-04-22 15:11 | 43.71886 | 100.91670 | 32947 ft | 467 kts | 319° |
| 2026-04-22 15:12 | 43.76863 | 100.85846 | 32945 ft | 468 kts | 319° |
| 2026-04-22 15:12 | 43.81802 | 100.80042 | 32942 ft | 468 kts | 319° |
| 2026-04-22 15:13 | 43.86778 | 100.74174 | 32941 ft | 468 kts | 319° |
| 2026-04-22 15:13 | 43.91741 | 100.68312 | 32934 ft | 469 kts | 318° |
| 2026-04-22 15:14 | 43.96715 | 100.62428 | 32937 ft | 469 kts | 318° |
| 2026-04-22 15:14 | 44.01655 | 100.56570 | 32936 ft | 469 kts | 318° |
| 2026-04-22 15:15 | 44.06595 | 100.50700 | 32935 ft | 468 kts | 318° |
| 2026-04-22 15:15 | 44.11553 | 100.44792 | 32934 ft | 468 kts | 317° |
| 2026-04-22 15:16 | 44.16509 | 100.38876 | 32936 ft | 468 kts | 317° |
| 2026-04-22 15:16 | 44.21430 | 100.32990 | 32937 ft | 468 kts | 317° |
| 2026-04-22 15:17 | 44.26349 | 100.27092 | 32937 ft | 468 kts | 317° |
| 2026-04-22 15:17 | 44.31291 | 100.21149 | 32933 ft | 469 kts | 317° |
| 2026-04-22 15:18 | 44.36217 | 100.15212 | 32937 ft | 469 kts | 317° |
| 2026-04-22 15:18 | 44.41154 | 100.09253 | 32937 ft | 469 kts | 317° |
| 2026-04-22 15:19 | 44.45275 | 100.04267 | 32937 ft | 468 kts | 317° |
| 2026-04-22 15:19 | 44.50207 | 99.98285 | 32930 ft | 469 kts | 317° |
| 2026-04-22 15:20 | 44.55122 | 99.92311 | 32925 ft | 469 kts | 317° |
| 2026-04-22 15:20 | 44.60052 | 99.86306 | 32937 ft | 469 kts | 317° |
| 2026-04-22 15:21 | 44.64968 | 99.80303 | 32952 ft | 468 kts | 317° |
| 2026-04-22 15:21 | 44.69882 | 99.74288 | 32951 ft | 468 kts | 317° |
| 2026-04-22 15:22 | 44.74790 | 99.68264 | 32957 ft | 468 kts | 317° |
| 2026-04-22 15:22 | 44.79699 | 99.62226 | 32951 ft | 469 kts | 317° |
| 2026-04-22 15:23 | 44.84598 | 99.56188 | 32954 ft | 469 kts | 316° |
| 2026-04-22 15:23 | 44.89519 | 99.50108 | 32956 ft | 469 kts | 316° |
| 2026-04-22 15:24 | 44.94411 | 99.44050 | 32955 ft | 469 kts | 316° |
| 2026-04-22 15:24 | 44.99294 | 99.37986 | 32952 ft | 468 kts | 316° |
| 2026-04-22 15:25 | 45.04192 | 99.31892 | 32956 ft | 468 kts | 316° |
| 2026-04-22 15:25 | 45.09066 | 99.25813 | 32949 ft | 468 kts | 316° |
| 2026-04-22 15:26 | 45.13939 | 99.19719 | 32954 ft | 468 kts | 316° |
| 2026-04-22 15:26 | 45.18836 | 99.13582 | 32954 ft | 468 kts | 316° |
| 2026-04-22 15:27 | 45.23692 | 99.07481 | 32957 ft | 468 kts | 316° |
| 2026-04-22 15:27 | 45.28570 | 99.01339 | 32958 ft | 468 kts | 316° |
| 2026-04-22 15:28 | 45.33449 | 98.95175 | 32953 ft | 468 kts | 316° |
| 2026-04-22 15:28 | 45.38302 | 98.89034 | 32953 ft | 468 kts | 316° |
| 2026-04-22 15:29 | 45.43173 | 98.82859 | 32955 ft | 468 kts | 316° |
| 2026-04-22 15:30 | 45.50465 | 98.73587 | 32955 ft | 468 kts | 315° |
| 2026-04-22 15:30 | 45.55300 | 98.67416 | 32956 ft | 468 kts | 315° |
| 2026-04-22 15:31 | 45.60149 | 98.61212 | 32957 ft | 468 kts | 315° |
| 2026-04-22 15:31 | 45.65005 | 98.54985 | 32948 ft | 468 kts | 315° |
| 2026-04-22 15:32 | 45.69841 | 98.48768 | 32943 ft | 468 kts | 315° |
| 2026-04-22 15:32 | 45.74669 | 98.42546 | 32945 ft | 467 kts | 315° |
| 2026-04-22 15:33 | 45.79487 | 98.36325 | 32945 ft | 467 kts | 315° |
| 2026-04-22 15:33 | 45.84319 | 98.30070 | 32945 ft | 467 kts | 315° |
| 2026-04-22 15:34 | 45.89150 | 98.23799 | 32944 ft | 467 kts | 315° |
| 2026-04-22 15:34 | 45.93954 | 98.17550 | 32950 ft | 467 kts | 315° |
| 2026-04-22 15:35 | 45.98735 | 98.11314 | 32943 ft | 467 kts | 315° |
| 2026-04-22 15:35 | 46.03561 | 98.05004 | 33006 ft | 465 kts | 315° |
| 2026-04-22 15:36 | 46.08346 | 97.98733 | 33038 ft | 466 kts | 315° |
| 2026-04-22 15:36 | 46.13127 | 97.92449 | 33047 ft | 466 kts | 315° |
| 2026-04-22 15:37 | 46.17915 | 97.86147 | 33048 ft | 467 kts | 314° |
| 2026-04-22 15:37 | 46.22712 | 97.79811 | 33041 ft | 467 kts | 314° |
| 2026-04-22 15:38 | 46.27489 | 97.73486 | 33048 ft | 467 kts | 314° |
| 2026-04-22 15:38 | 46.34676 | 97.63945 | 33047 ft | 468 kts | 314° |
| 2026-04-22 15:39 | 46.39454 | 97.57580 | 33049 ft | 468 kts | 314° |
| 2026-04-22 15:39 | 46.44245 | 97.51187 | 33047 ft | 468 kts | 314° |
| 2026-04-22 15:40 | 46.49048 | 97.44761 | 33049 ft | 468 kts | 314° |
| 2026-04-22 15:40 | 46.53833 | 97.38346 | 33044 ft | 468 kts | 314° |
| 2026-04-22 15:41 | 46.58598 | 97.31934 | 33044 ft | 468 kts | 314° |
| 2026-04-22 15:41 | 46.63373 | 97.25490 | 33049 ft | 468 kts | 314° |
| 2026-04-22 15:42 | 46.68139 | 97.19050 | 33048 ft | 469 kts | 314° |
| 2026-04-22 15:42 | 46.72910 | 97.12590 | 33051 ft | 469 kts | 313° |
| 2026-04-22 15:43 | 46.77708 | 97.06077 | 33045 ft | 469 kts | 313° |
| 2026-04-22 15:43 | 46.82457 | 96.99615 | 33051 ft | 469 kts | 313° |
| 2026-04-22 15:44 | 46.87224 | 96.93111 | 33048 ft | 469 kts | 313° |
| 2026-04-22 15:44 | 46.91986 | 96.86597 | 33047 ft | 469 kts | 313° |
| 2026-04-22 15:45 | 46.96761 | 96.80049 | 33049 ft | 469 kts | 313° |
| 2026-04-22 15:45 | 47.01527 | 96.73497 | 33037 ft | 469 kts | 313° |
| 2026-04-22 15:46 | 47.06268 | 96.66962 | 33051 ft | 469 kts | 313° |
| 2026-04-22 15:46 | 47.11003 | 96.60418 | 33041 ft | 469 kts | 313° |
| 2026-04-22 15:47 | 47.15747 | 96.53844 | 33051 ft | 469 kts | 313° |
| 2026-04-22 15:47 | 47.20503 | 96.47240 | 33048 ft | 469 kts | 313° |
| 2026-04-22 15:48 | 47.25220 | 96.40668 | 33040 ft | 469 kts | 312° |
| 2026-04-22 15:48 | 47.29946 | 96.34068 | 33050 ft | 469 kts | 312° |
| 2026-04-22 15:49 | 47.34695 | 96.27422 | 33047 ft | 468 kts | 312° |
| 2026-04-22 15:49 | 47.39397 | 96.20822 | 33049 ft | 468 kts | 312° |
| 2026-04-22 15:50 | 47.44122 | 96.14173 | 33040 ft | 467 kts | 312° |
| 2026-04-22 15:50 | 47.48815 | 96.07554 | 33050 ft | 466 kts | 312° |
| 2026-04-22 15:51 | 47.53488 | 96.00945 | 33047 ft | 466 kts | 312° |
| 2026-04-22 15:51 | 47.58172 | 95.94303 | 33049 ft | 466 kts | 311° |
| 2026-04-22 15:52 | 47.62840 | 95.87664 | 33043 ft | 466 kts | 311° |
| 2026-04-22 15:52 | 47.67535 | 95.80974 | 33040 ft | 467 kts | 311° |
| 2026-04-22 15:53 | 47.72194 | 95.74320 | 33037 ft | 466 kts | 311° |
| 2026-04-22 15:53 | 47.76857 | 95.67640 | 33045 ft | 466 kts | 311° |
| 2026-04-22 15:54 | 47.81539 | 95.60888 | 33035 ft | 466 kts | 311° |
| 2026-04-22 15:54 | 47.86159 | 95.54204 | 33040 ft | 466 kts | 311° |
| 2026-04-22 15:55 | 47.90833 | 95.47435 | 33041 ft | 467 kts | 311° |
| 2026-04-22 15:55 | 47.95477 | 95.40693 | 33037 ft | 467 kts | 311° |
| 2026-04-22 15:56 | 48.00125 | 95.33925 | 33039 ft | 468 kts | 311° |
| 2026-04-22 15:56 | 48.04795 | 95.27110 | 33040 ft | 467 kts | 311° |
| 2026-04-22 15:57 | 48.09420 | 95.20344 | 33034 ft | 467 kts | 311° |
| 2026-04-22 15:57 | 48.14044 | 95.13558 | 33034 ft | 466 kts | 311° |
| 2026-04-22 15:58 | 48.18690 | 95.06723 | 33037 ft | 466 kts | 311° |
| 2026-04-22 15:58 | 48.23304 | 94.99913 | 33036 ft | 466 kts | 311° |
| 2026-04-22 15:59 | 48.27933 | 94.93065 | 33031 ft | 466 kts | 311° |
| 2026-04-22 15:59 | 48.32539 | 94.86235 | 32996 ft | 467 kts | 311° |
| 2026-04-22 16:00 | 48.37171 | 94.79343 | 32982 ft | 468 kts | 311° |
| 2026-04-22 16:00 | 48.41778 | 94.72475 | 32992 ft | 468 kts | 311° |
| 2026-04-22 16:01 | 48.46413 | 94.65547 | 33001 ft | 469 kts | 311° |
| 2026-04-22 16:01 | 48.51019 | 94.58645 | 32994 ft | 469 kts | 311° |
| 2026-04-22 16:02 | 48.55650 | 94.51689 | 32985 ft | 469 kts | 311° |
| 2026-04-22 16:02 | 48.60251 | 94.44754 | 32997 ft | 469 kts | 311° |
| 2026-04-22 16:03 | 48.64861 | 94.37793 | 32978 ft | 469 kts | 311° |
| 2026-04-22 16:03 | 48.69486 | 94.30799 | 32996 ft | 469 kts | 311° |
| 2026-04-22 16:04 | 48.74079 | 94.23838 | 32991 ft | 469 kts | 311° |
| 2026-04-22 16:04 | 48.78681 | 94.16841 | 32993 ft | 469 kts | 311° |
| 2026-04-22 16:05 | 48.82519 | 94.10994 | 32989 ft | 468 kts | 311° |
| 2026-04-22 16:05 | 48.87867 | 94.02823 | 32987 ft | 468 kts | 311° |
| 2026-04-22 16:06 | 48.91689 | 93.96965 | 32995 ft | 468 kts | 311° |
| 2026-04-22 16:06 | 48.96260 | 93.89942 | 33000 ft | 468 kts | 311° |
| 2026-04-22 16:07 | 49.00833 | 93.82902 | 32995 ft | 469 kts | 311° |
| 2026-04-22 16:07 | 49.05427 | 93.75811 | 32993 ft | 469 kts | 311° |
| 2026-04-22 16:08 | 49.09995 | 93.68730 | 32990 ft | 469 kts | 311° |
| 2026-04-22 16:08 | 49.14587 | 93.61599 | 32996 ft | 468 kts | 311° |
| 2026-04-22 16:09 | 49.19118 | 93.54549 | 32995 ft | 467 kts | 311° |
| 2026-04-22 16:09 | 49.23685 | 93.47425 | 33000 ft | 467 kts | 311° |
| 2026-04-22 16:10 | 49.28209 | 93.40345 | 33000 ft | 466 kts | 311° |
| 2026-04-22 16:10 | 49.32727 | 93.33259 | 32998 ft | 467 kts | 311° |
| 2026-04-22 16:11 | 49.37265 | 93.26123 | 32999 ft | 467 kts | 311° |
| 2026-04-22 16:11 | 49.41794 | 93.18951 | 32999 ft | 466 kts | 310° |
| 2026-04-22 16:12 | 49.46286 | 93.11804 | 32999 ft | 466 kts | 310° |
| 2026-04-22 16:12 | 49.50791 | 93.04628 | 33001 ft | 466 kts | 310° |
| 2026-04-22 16:13 | 49.55300 | 92.97423 | 33004 ft | 466 kts | 310° |
| 2026-04-22 16:13 | 49.59783 | 92.90245 | 33002 ft | 466 kts | 310° |
| 2026-04-22 16:14 | 49.64265 | 92.83047 | 33013 ft | 466 kts | 310° |
| 2026-04-22 16:14 | 49.68764 | 92.75800 | 33012 ft | 466 kts | 310° |
| 2026-04-22 16:15 | 49.73239 | 92.68575 | 33016 ft | 467 kts | 310° |
| 2026-04-22 16:15 | 49.77731 | 92.61300 | 33024 ft | 466 kts | 310° |
| 2026-04-22 16:16 | 49.82200 | 92.54039 | 33028 ft | 466 kts | 310° |
| 2026-04-22 16:16 | 49.86679 | 92.46740 | 33027 ft | 466 kts | 310° |
| 2026-04-22 16:17 | 49.91134 | 92.39460 | 33031 ft | 466 kts | 310° |
| 2026-04-22 16:17 | 49.95580 | 92.32177 | 33027 ft | 466 kts | 310° |
| 2026-04-22 16:18 | 50.00046 | 92.24840 | 33026 ft | 465 kts | 310° |
| 2026-04-22 16:18 | 50.04473 | 92.17545 | 33024 ft | 464 kts | 310° |
| 2026-04-22 16:19 | 50.08917 | 92.10198 | 33026 ft | 464 kts | 310° |
| 2026-04-22 16:19 | 50.13329 | 92.02889 | 33026 ft | 465 kts | 310° |
| 2026-04-22 16:20 | 50.17763 | 91.95520 | 33026 ft | 465 kts | 310° |
| 2026-04-22 16:20 | 50.22173 | 91.88167 | 33023 ft | 465 kts | 310° |
| 2026-04-22 16:21 | 50.26596 | 91.80771 | 33036 ft | 464 kts | 310° |
| 2026-04-22 16:21 | 50.31008 | 91.73375 | 33031 ft | 464 kts | 310° |
| 2026-04-22 16:22 | 50.37570 | 91.62335 | 33041 ft | 463 kts | 310° |
| 2026-04-22 16:23 | 50.44124 | 91.51263 | 33032 ft | 461 kts | 310° |
| 2026-04-22 16:23 | 50.48478 | 91.43881 | 33044 ft | 461 kts | 310° |
| 2026-04-22 16:24 | 50.55260 | 91.33117 | 33022 ft | 461 kts | 313° |
| 2026-04-22 16:25 | 50.59874 | 91.26086 | 32982 ft | 460 kts | 313° |
| 2026-04-22 16:25 | 50.66705 | 91.15531 | 32998 ft | 458 kts | 313° |
| 2026-04-22 16:26 | 50.71236 | 91.08458 | 32998 ft | 458 kts | 313° |
| 2026-04-22 16:26 | 50.75725 | 91.01424 | 32999 ft | 456 kts | 313° |
| 2026-04-22 16:27 | 50.80235 | 90.94342 | 32994 ft | 455 kts | 313° |
| 2026-04-22 16:27 | 50.84730 | 90.87263 | 32985 ft | 455 kts | 313° |
| 2026-04-22 16:28 | 50.89192 | 90.80214 | 32999 ft | 455 kts | 313° |
| 2026-04-22 16:28 | 50.93679 | 90.73108 | 32999 ft | 454 kts | 313° |
| 2026-04-22 16:29 | 50.98136 | 90.66033 | 33000 ft | 454 kts | 313° |
| 2026-04-22 16:29 | 51.02604 | 90.58913 | 33000 ft | 454 kts | 313° |
| 2026-04-22 16:30 | 51.07032 | 90.51840 | 32997 ft | 453 kts | 313° |
| 2026-04-22 16:30 | 51.11486 | 90.44705 | 33002 ft | 453 kts | 313° |
| 2026-04-22 16:31 | 51.15931 | 90.37563 | 32999 ft | 453 kts | 313° |
| 2026-04-22 16:31 | 51.20347 | 90.30447 | 32984 ft | 452 kts | 313° |
| 2026-04-22 16:32 | 51.24759 | 90.23316 | 33006 ft | 452 kts | 313° |
| 2026-04-22 16:32 | 51.29188 | 90.16138 | 32991 ft | 452 kts | 313° |
| 2026-04-22 16:33 | 51.33585 | 90.08987 | 32979 ft | 452 kts | 313° |
| 2026-04-22 16:33 | 51.37999 | 90.01791 | 32981 ft | 452 kts | 313° |
| 2026-04-22 16:34 | 51.42413 | 89.94573 | 32979 ft | 452 kts | 313° |
| 2026-04-22 16:34 | 51.46773 | 89.87426 | 32976 ft | 451 kts | 313° |
| 2026-04-22 16:35 | 51.51173 | 89.80192 | 32975 ft | 451 kts | 313° |
| 2026-04-22 16:35 | 51.55526 | 89.73011 | 32988 ft | 450 kts | 313° |
| 2026-04-22 16:36 | 51.59898 | 89.65780 | 32981 ft | 450 kts | 313° |
| 2026-04-22 16:36 | 51.64238 | 89.58582 | 32984 ft | 450 kts | 313° |
| 2026-04-22 16:37 | 51.68612 | 89.51312 | 32988 ft | 450 kts | 313° |
| 2026-04-22 16:37 | 51.72960 | 89.44055 | 32975 ft | 449 kts | 313° |
| 2026-04-22 16:38 | 51.77279 | 89.36816 | 32980 ft | 450 kts | 313° |
| 2026-04-22 16:38 | 51.81628 | 89.29515 | 32976 ft | 450 kts | 313° |
| 2026-04-22 16:39 | 51.85965 | 89.22218 | 32981 ft | 450 kts | 313° |
| 2026-04-22 16:39 | 51.90283 | 89.14931 | 32975 ft | 451 kts | 313° |
| 2026-04-22 16:40 | 51.94633 | 89.07568 | 32988 ft | 450 kts | 313° |
| 2026-04-22 16:41 | 52.01131 | 88.96528 | 32982 ft | 451 kts | 313° |
| 2026-04-22 16:41 | 52.05430 | 88.89197 | 32965 ft | 450 kts | 312° |
| 2026-04-22 16:42 | 52.09759 | 88.81792 | 32975 ft | 450 kts | 312° |
| 2026-04-22 16:42 | 52.14043 | 88.74450 | 32963 ft | 450 kts | 313° |
| 2026-04-22 16:43 | 52.18335 | 88.67066 | 32966 ft | 449 kts | 312° |
| 2026-04-22 16:43 | 52.22601 | 88.59616 | 32969 ft | 449 kts | 312° |
| 2026-04-22 16:44 | 52.26841 | 88.52100 | 32968 ft | 449 kts | 311° |
| 2026-04-22 16:44 | 52.31048 | 88.44628 | 32976 ft | 449 kts | 311° |
| 2026-04-22 16:45 | 52.35287 | 88.37092 | 32970 ft | 450 kts | 311° |
| 2026-04-22 16:45 | 52.39514 | 88.29558 | 32957 ft | 450 kts | 311° |
| 2026-04-22 16:46 | 52.43759 | 88.21976 | 32958 ft | 451 kts | 311° |
| 2026-04-22 16:46 | 52.48007 | 88.14363 | 32953 ft | 451 kts | 311° |
| 2026-04-22 16:47 | 52.52224 | 88.06780 | 32955 ft | 451 kts | 311° |
| 2026-04-22 16:47 | 52.55745 | 88.00431 | 32954 ft | 451 kts | 311° |
| 2026-04-22 16:48 | 52.60657 | 87.91552 | 32941 ft | 450 kts | 311° |
| 2026-04-22 16:48 | 52.64872 | 87.83906 | 32945 ft | 449 kts | 311° |
| 2026-04-22 16:49 | 52.69054 | 87.76295 | 32943 ft | 448 kts | 311° |
| 2026-04-22 16:49 | 52.73242 | 87.68646 | 32941 ft | 448 kts | 311° |
| 2026-04-22 16:50 | 52.77386 | 87.61059 | 32936 ft | 447 kts | 311° |
| 2026-04-22 16:50 | 52.81550 | 87.53408 | 32938 ft | 447 kts | 311° |
| 2026-04-22 16:51 | 52.85684 | 87.45790 | 32937 ft | 446 kts | 311° |
| 2026-04-22 16:51 | 52.89126 | 87.39429 | 32937 ft | 446 kts | 311° |
| 2026-04-22 16:52 | 52.93263 | 87.31764 | 32924 ft | 446 kts | 311° |
| 2026-04-22 16:52 | 52.97394 | 87.24083 | 32924 ft | 445 kts | 311° |
| 2026-04-22 16:53 | 53.01513 | 87.16400 | 32926 ft | 444 kts | 311° |
| 2026-04-22 16:53 | 53.05606 | 87.08745 | 32921 ft | 444 kts | 311° |
| 2026-04-22 16:54 | 53.09703 | 87.01059 | 32926 ft | 444 kts | 311° |
| 2026-04-22 16:54 | 53.13801 | 86.93346 | 32925 ft | 444 kts | 311° |
| 2026-04-22 16:55 | 53.17862 | 86.85678 | 32918 ft | 444 kts | 311° |
| 2026-04-22 16:55 | 53.21952 | 86.77934 | 32917 ft | 443 kts | 310° |
| 2026-04-22 16:56 | 53.26011 | 86.70225 | 32912 ft | 443 kts | 310° |
| 2026-04-22 16:56 | 53.30083 | 86.62463 | 32920 ft | 443 kts | 310° |
| 2026-04-22 16:57 | 53.34124 | 86.54733 | 32919 ft | 443 kts | 310° |
| 2026-04-22 16:57 | 53.38187 | 86.46942 | 32916 ft | 443 kts | 310° |
| 2026-04-22 16:58 | 53.42219 | 86.39188 | 32922 ft | 443 kts | 310° |
| 2026-04-22 16:58 | 53.46248 | 86.31414 | 32906 ft | 443 kts | 310° |
| 2026-04-22 16:59 | 53.50297 | 86.23570 | 32904 ft | 443 kts | 310° |
| 2026-04-22 16:59 | 53.54317 | 86.15764 | 32911 ft | 442 kts | 310° |
| 2026-04-22 17:00 | 53.58343 | 86.07920 | 32899 ft | 442 kts | 310° |
| 2026-04-22 17:00 | 53.64348 | 85.96175 | 32908 ft | 442 kts | 310° |
| 2026-04-22 17:01 | 53.68341 | 85.88335 | 32903 ft | 442 kts | 310° |
| 2026-04-22 17:01 | 53.72353 | 85.80429 | 32904 ft | 442 kts | 310° |
| 2026-04-22 17:02 | 53.76336 | 85.72555 | 32904 ft | 442 kts | 310° |
| 2026-04-22 17:02 | 53.80339 | 85.64619 | 32903 ft | 443 kts | 310° |
| 2026-04-22 17:03 | 53.84317 | 85.56710 | 32893 ft | 443 kts | 310° |
| 2026-04-22 17:03 | 53.88312 | 85.48736 | 32900 ft | 442 kts | 309° |
| 2026-04-22 17:04 | 53.92274 | 85.40802 | 32892 ft | 442 kts | 309° |
| 2026-04-22 17:04 | 53.96245 | 85.32828 | 32899 ft | 442 kts | 309° |
| 2026-04-22 17:05 | 54.00187 | 85.24890 | 32889 ft | 441 kts | 309° |
| 2026-04-22 17:05 | 54.04154 | 85.16875 | 32889 ft | 441 kts | 309° |
| 2026-04-22 17:06 | 54.08082 | 85.08915 | 32887 ft | 440 kts | 309° |
| 2026-04-22 17:06 | 54.11984 | 85.00907 | 32886 ft | 439 kts | 308° |
| 2026-04-22 17:07 | 54.15666 | 84.92566 | 32899 ft | 438 kts | 306° |
| 2026-04-22 17:07 | 54.19255 | 84.84234 | 32886 ft | 438 kts | 306° |
| 2026-04-22 17:08 | 54.22895 | 84.75861 | 32890 ft | 436 kts | 306° |
| 2026-04-22 17:08 | 54.26489 | 84.67625 | 32851 ft | 432 kts | 306° |
| 2026-04-22 17:09 | 54.30086 | 84.59371 | 32863 ft | 427 kts | 306° |
| 2026-04-22 17:09 | 54.31815 | 84.55396 | 32845 ft | 414 kts | 306° |
| 2026-04-22 17:09 | 54.33516 | 84.51475 | 32516 ft | 405 kts | 306° |
| 2026-04-22 17:10 | 54.35208 | 84.47568 | 31866 ft | 416 kts | 306° |
| 2026-04-22 17:10 | 54.36951 | 84.43535 | 31084 ft | 431 kts | 306° |
| 2026-04-22 17:10 | 54.38733 | 84.39409 | 30399 ft | 429 kts | 306° |
| 2026-04-22 17:10 | 54.40549 | 84.35198 | 29708 ft | 446 kts | 306° |
| 2026-04-22 17:11 | 54.42430 | 84.30828 | 29071 ft | 462 kts | 306° |
| 2026-04-22 17:11 | 54.44352 | 84.26357 | 28483 ft | 465 kts | 306° |
| 2026-04-22 17:11 | 54.46274 | 84.21881 | 27421 ft | 463 kts | 306° |
| 2026-04-22 17:11 | 54.48164 | 84.17467 | 26737 ft | 469 kts | 306° |
| 2026-04-22 17:12 | 54.50099 | 84.12909 | 26744 ft | 470 kts | 304° |
| 2026-04-22 17:12 | 54.51887 | 84.08234 | 27333 ft | 459 kts | 302° |
| 2026-04-22 17:12 | 54.53554 | 84.03524 | 27379 ft | 462 kts | 301° |
| 2026-04-22 17:12 | 54.55178 | 83.98790 | 27382 ft | 464 kts | 300° |
| 2026-04-22 17:13 | 54.56826 | 83.93971 | 27387 ft | 466 kts | 300° |
| 2026-04-22 17:13 | 54.58484 | 83.89157 | 27390 ft | 468 kts | 301° |
| 2026-04-22 17:13 | 54.60173 | 83.84299 | 27388 ft | 469 kts | 301° |
| 2026-04-22 17:13 | 54.61838 | 83.79536 | 27447 ft | 469 kts | 301° |
| 2026-04-22 17:14 | 54.63511 | 83.74760 | 27828 ft | 462 kts | 301° |
| 2026-04-22 17:14 | 54.65185 | 83.69977 | 27793 ft | 465 kts | 301° |
| 2026-04-22 17:14 | 54.66865 | 83.65167 | 27795 ft | 466 kts | 301° |
| 2026-04-22 17:14 | 54.68545 | 83.60342 | 27786 ft | 468 kts | 301° |
| 2026-04-22 17:15 | 54.69659 | 83.57141 | 27786 ft | 468 kts | 301° |
| 2026-04-22 17:15 | 54.71884 | 83.50731 | 27781 ft | 470 kts | 301° |
| 2026-04-22 17:15 | 54.73571 | 83.45857 | 27778 ft | 470 kts | 301° |
| 2026-04-22 17:15 | 54.75253 | 83.40984 | 27777 ft | 471 kts | 301° |
| 2026-04-22 17:16 | 54.76910 | 83.36167 | 27769 ft | 472 kts | 301° |
| 2026-04-22 17:16 | 54.78593 | 83.31262 | 27768 ft | 472 kts | 301° |
| 2026-04-22 17:16 | 54.80278 | 83.26351 | 27762 ft | 473 kts | 301° |
| 2026-04-22 17:16 | 54.81959 | 83.21449 | 27761 ft | 473 kts | 301° |
| 2026-04-22 17:17 | 54.83624 | 83.16585 | 27752 ft | 474 kts | 300° |
| 2026-04-22 17:17 | 54.85307 | 83.11647 | 27754 ft | 474 kts | 300° |
| 2026-04-22 17:17 | 54.86772 | 83.06525 | 27731 ft | 475 kts | 290° |
| 2026-04-22 17:17 | 54.87505 | 83.00943 | 27710 ft | 472 kts | 280° |
| 2026-04-22 17:18 | 54.87970 | 82.95469 | 27516 ft | 434 kts | 281° |
| 2026-04-22 17:18 | 54.88434 | 82.90608 | 27265 ft | 392 kts | 282° |
| 2026-04-22 17:18 | 54.88902 | 82.86141 | 27005 ft | 358 kts | 282° |
| 2026-04-22 17:18 | 54.89348 | 82.82023 | 26545 ft | 335 kts | 282° |
| 2026-04-22 17:19 | 54.90167 | 82.74393 | 24999 ft | 315 kts | 282° |
| 2026-04-22 17:19 | 54.91449 | 82.67250 | 22939 ft | 311 kts | 305° |
| 2026-04-22 17:20 | 54.94762 | 82.62515 | 21027 ft | 312 kts | 333° |
| 2026-04-22 17:20 | 54.98963 | 82.60846 | 19232 ft | 310 kts | 346° |
| 2026-04-22 17:21 | 55.01076 | 82.60203 | 18357 ft | 306 kts | 346° |
| 2026-04-22 17:21 | 55.05239 | 82.58890 | 16583 ft | 300 kts | 345° |
| 2026-04-22 17:22 | 55.09290 | 82.57559 | 14845 ft | 295 kts | 345° |
| 2026-04-22 17:22 | 55.11306 | 82.56882 | 13986 ft | 292 kts | 345° |
| 2026-04-22 17:22 | 55.15276 | 82.55539 | 12283 ft | 287 kts | 343° |
| 2026-04-22 17:23 | 55.17052 | 82.54232 | 11420 ft | 276 kts | 318° |
| 2026-04-22 17:23 | 55.18949 | 82.48717 | 9596 ft | 268 kts | 281° |
| 2026-04-22 17:23 | 55.19311 | 82.45497 | 8708 ft | 269 kts | 278° |
| 2026-04-22 17:24 | 55.19632 | 82.42282 | 7900 ft | 267 kts | 278° |
| 2026-04-22 17:24 | 55.19959 | 82.39097 | 7105 ft | 265 kts | 277° |
| 2026-04-22 17:24 | 55.20133 | 82.35919 | 6310 ft | 261 kts | 265° |
| 2026-04-22 17:24 | 55.20010 | 82.32799 | 5568 ft | 256 kts | 262° |
| 2026-04-22 17:25 | 55.19857 | 82.29787 | 5262 ft | 238 kts | 262° |
| 2026-04-22 17:25 | 55.19723 | 82.26933 | 5097 ft | 249 kts | 262° |
| 2026-04-22 17:25 | 55.19587 | 82.23794 | 5032 ft | 263 kts | 263° |
| 2026-04-22 17:25 | 55.19459 | 82.20603 | 5010 ft | 266 kts | 263° |
| 2026-04-22 17:26 | 55.19173 | 82.17490 | 4987 ft | 263 kts | 244° |
| 2026-04-22 17:26 | 55.18237 | 82.14819 | 5009 ft | 261 kts | 232° |
| 2026-04-22 17:26 | 55.17217 | 82.12171 | 5006 ft | 262 kts | 234° |
| 2026-04-22 17:26 | 55.16221 | 82.09498 | 5000 ft | 262 kts | 234° |
| 2026-04-22 17:27 | 55.15238 | 82.06849 | 4997 ft | 261 kts | 234° |
| 2026-04-22 17:27 | 55.14260 | 82.04206 | 4986 ft | 255 kts | 234° |
| 2026-04-22 17:27 | 55.13251 | 82.01718 | 4989 ft | 250 kts | 222° |
| 2026-04-22 17:27 | 55.11810 | 82.00072 | 5007 ft | 249 kts | 204° |
| 2026-04-22 17:28 | 55.10229 | 81.98679 | 5011 ft | 255 kts | 205° |
| 2026-04-22 17:28 | 55.08689 | 81.97254 | 4757 ft | 245 kts | 205° |
| 2026-04-22 17:28 | 55.07191 | 81.95867 | 4069 ft | 244 kts | 205° |
| 2026-04-22 17:28 | 55.05697 | 81.94484 | 3466 ft | 246 kts | 203° |
| 2026-04-22 17:29 | 55.04093 | 81.93353 | 3253 ft | 246 kts | 181° |
| 2026-04-22 17:29 | 55.02484 | 81.93904 | 3060 ft | 233 kts | 145° |
| 2026-04-22 17:29 | 55.01380 | 81.95822 | 3011 ft | 226 kts | 123° |
| 2026-04-22 17:29 | 55.00650 | 81.98247 | 2997 ft | 227 kts | 108° |
| 2026-04-22 17:30 | 55.00333 | 82.00929 | 2999 ft | 227 kts | 99° |
| 2026-04-22 17:30 | 55.00131 | 82.03681 | 2996 ft | 229 kts | 98° |
| 2026-04-22 17:30 | 54.99936 | 82.06450 | 2996 ft | 229 kts | 98° |
| 2026-04-22 17:30 | 54.99737 | 82.09192 | 2997 ft | 230 kts | 98° |
| 2026-04-22 17:31 | 54.99528 | 82.11957 | 2985 ft | 230 kts | 99° |
| 2026-04-22 17:31 | 54.99314 | 82.14708 | 2990 ft | 229 kts | 99° |
| 2026-04-22 17:31 | 54.99098 | 82.17421 | 2994 ft | 229 kts | 99° |
| 2026-04-22 17:31 | 54.98875 | 82.20162 | 3007 ft | 228 kts | 99° |
| 2026-04-22 17:32 | 54.98651 | 82.22903 | 3004 ft | 228 kts | 99° |
| 2026-04-22 17:32 | 54.98436 | 82.25545 | 2970 ft | 206 kts | 99° |
| 2026-04-22 17:32 | 54.98246 | 82.27888 | 2982 ft | 188 kts | 99° |
| 2026-04-22 17:32 | 54.98130 | 82.30052 | 2984 ft | 176 kts | 89° |
| 2026-04-22 17:33 | 54.98207 | 82.31479 | 2999 ft | 175 kts | 86° |
| 2026-04-22 17:33 | 54.98442 | 82.34249 | 2989 ft | 173 kts | 84° |
| 2026-04-22 17:33 | 54.98628 | 82.36309 | 2993 ft | 172 kts | 85° |
| 2026-04-22 17:33 | 54.98813 | 82.38345 | 2987 ft | 171 kts | 84° |
| 2026-04-22 17:34 | 54.99000 | 82.40397 | 2838 ft | 173 kts | 84° |
| 2026-04-22 17:34 | 54.99188 | 82.42477 | 2613 ft | 173 kts | 83° |
| 2026-04-22 17:34 | 54.99378 | 82.44550 | 2425 ft | 174 kts | 82° |
| 2026-04-22 17:34 | 54.99567 | 82.46624 | 2190 ft | 173 kts | 81° |
| 2026-04-22 17:35 | 54.99753 | 82.48666 | 1942 ft | 171 kts | 81° |
| 2026-04-22 17:35 | 54.99933 | 82.50651 | 1692 ft | 159 kts | 80° |
| 2026-04-22 17:35 | 55.00099 | 82.52468 | 1501 ft | 145 kts | 79° |
| 2026-04-22 17:35 | 55.00252 | 82.54151 | 1311 ft | 137 kts | 79° |
| 2026-04-22 17:36 | 55.00400 | 82.55784 | 1143 ft | 138 kts | 79° |
| 2026-04-22 17:36 | 55.00550 | 82.57434 | 955 ft | 137 kts | 79° |
| 2026-04-22 17:36 | 55.00699 | 82.59080 | 773 ft | 137 kts | 79° |
| 2026-04-22 17:36 | 55.00854 | 82.60719 | 582 ft | 137 kts | 79° |
| 2026-04-22 17:37 | 55.01001 | 82.62335 | 430 ft | 137 kts | 80° |
| 2026-04-22 17:37 | 55.01141 | 82.63921 | 380 ft | 120 kts | 80° |
| 2026-04-22 17:37 | 55.01252 | 82.65139 | 378 ft | 79 kts | 81° |
| 2026-04-22 17:37 | 55.01290 | 82.65649 | 377 ft | 14 kts | 98° |
| 2026-04-22 17:38 | 55.01291 | 82.65741 | 377 ft | 2 kts | 47° |
| 2026-04-22 17:38 | 55.01300 | 82.65741 | 377 ft | 1 kts | 1° |
| 2026-04-22 17:38 | 55.01308 | 82.65704 | 376 ft | 11 kts | 272° |
| 2026-04-22 17:38 | 55.01280 | 82.65418 | 377 ft | 27 kts | 259° |
| 2026-04-22 17:39 | 55.01252 | 82.65151 | 378 ft | 20 kts | 260° |
| 2026-04-22 17:39 | 55.01206 | 82.65053 | 376 ft | 9 kts | 180° |
| 2026-04-22 17:39 | 55.01104 | 82.65076 | 377 ft | 9 kts | 171° |
| 2026-04-22 17:40 | 55.01043 | 82.65096 | 377 ft | 9 kts | 169° |
| 2026-04-22 17:40 | 55.00962 | 82.65118 | 377 ft | 9 kts | 171° |
| 2026-04-22 17:40 | 55.00900 | 82.65116 | 377 ft | 9 kts | 208° |
| 2026-04-22 17:40 | 55.00875 | 82.65016 | 377 ft | 9 kts | 268° |
| 2026-04-22 17:41 | 55.00887 | 82.64881 | 377 ft | 13 kts | 283° |
| 2026-04-22 17:41 | 55.00901 | 82.64779 | 377 ft | 13 kts | 283° |
| 2026-04-22 17:41 | 55.00921 | 82.64625 | 377 ft | 13 kts | 283° |
| 2026-04-22 17:41 | 55.00941 | 82.64472 | 377 ft | 13 kts | 283° |
| 2026-04-22 17:42 | 55.00958 | 82.64317 | 377 ft | 13 kts | 273° |
| 2026-04-22 17:42 | 55.00950 | 82.64157 | 378 ft | 14 kts | 261° |
| 2026-04-22 17:42 | 55.00934 | 82.63978 | 377 ft | 15 kts | 261° |
| 2026-04-22 17:42 | 55.00919 | 82.63819 | 377 ft | 10 kts | 255° |
| 2026-04-22 17:43 | 55.00861 | 82.63767 | 377 ft | 9 kts | 178° |
| 2026-04-22 17:43 | 55.00825 | 82.63776 | 377 ft | 0 kts | 172° |